<?xml version="1.0" encoding="UTF-8" standalone="no" ?>
<gpx xmlns="http://www.topografix.com/GPX/1/1" xmlns:xsi="http://www.w3.org/2001/XMLSchema-instance" xsi:schemaLocation="http://www.topografix.com/GPX/1/1 http://www.topografix.com/GPX/1/1/gpx.xsd" version="1.1" creator="VisuGPX - https://www.visugpx.com">
  <metadata>
    <name>22-FEV-18 PLATEAU DU CASTELET</name>
  </metadata>
  <trk>
    <name><![CDATA[22-FEV-18 PLATEAU DU CASTELET]]></name>
    <trkseg>
      <trkpt lat="43.74824" lon="7.1435">
        <ele>432.37</ele>
        <time>2018-02-22T08:28:31Z</time>
      </trkpt>
      <trkpt lat="43.74823" lon="7.1435">
        <ele>432.4</ele>
        <time>2018-02-22T08:28:32Z</time>
      </trkpt>
      <trkpt lat="43.74809" lon="7.14344">
        <ele>432.66</ele>
        <time>2018-02-22T08:28:47Z</time>
      </trkpt>
      <trkpt lat="43.74798" lon="7.14341">
        <ele>432.85</ele>
        <time>2018-02-22T08:28:55Z</time>
      </trkpt>
      <trkpt lat="43.74783" lon="7.14341">
        <ele>433.18</ele>
        <time>2018-02-22T08:29:06Z</time>
      </trkpt>
      <trkpt lat="43.7478" lon="7.14338">
        <ele>433.32</ele>
        <time>2018-02-22T08:29:10Z</time>
      </trkpt>
      <trkpt lat="43.74779" lon="7.14336">
        <ele>433.36</ele>
        <time>2018-02-22T08:29:12Z</time>
      </trkpt>
      <trkpt lat="43.74773" lon="7.14324">
        <ele>433.63</ele>
        <time>2018-02-22T08:29:19Z</time>
      </trkpt>
      <trkpt lat="43.74771" lon="7.14319">
        <ele>433.75</ele>
        <time>2018-02-22T08:29:22Z</time>
      </trkpt>
      <trkpt lat="43.74771" lon="7.14316">
        <ele>433.99</ele>
        <time>2018-02-22T08:29:24Z</time>
      </trkpt>
      <trkpt lat="43.74764" lon="7.14305">
        <ele>434.54</ele>
        <time>2018-02-22T08:29:36Z</time>
      </trkpt>
      <trkpt lat="43.74759" lon="7.14294">
        <ele>435.23</ele>
        <time>2018-02-22T08:29:51Z</time>
      </trkpt>
      <trkpt lat="43.74759" lon="7.14293">
        <ele>435.17</ele>
        <time>2018-02-22T08:29:52Z</time>
      </trkpt>
      <trkpt lat="43.74759" lon="7.14289">
        <ele>434.99</ele>
        <time>2018-02-22T08:29:55Z</time>
      </trkpt>
      <trkpt lat="43.74758" lon="7.1426">
        <ele>436.91</ele>
        <time>2018-02-22T08:30:21Z</time>
      </trkpt>
      <trkpt lat="43.74752" lon="7.14222">
        <ele>439.88</ele>
        <time>2018-02-22T08:30:47Z</time>
      </trkpt>
      <trkpt lat="43.74763" lon="7.14216">
        <ele>441.66</ele>
        <time>2018-02-22T08:31:02Z</time>
      </trkpt>
      <trkpt lat="43.74763" lon="7.14219">
        <ele>442.29</ele>
        <time>2018-02-22T08:31:07Z</time>
      </trkpt>
      <trkpt lat="43.74765" lon="7.14227">
        <ele>443.45</ele>
        <time>2018-02-22T08:31:31Z</time>
      </trkpt>
      <trkpt lat="43.74783" lon="7.14232">
        <ele>443.58</ele>
        <time>2018-02-22T08:31:49Z</time>
      </trkpt>
      <trkpt lat="43.74798" lon="7.14224">
        <ele>444.55</ele>
        <time>2018-02-22T08:32:08Z</time>
      </trkpt>
      <trkpt lat="43.74793" lon="7.14231">
        <ele>446.01</ele>
        <time>2018-02-22T08:32:19Z</time>
      </trkpt>
      <trkpt lat="43.74794" lon="7.1423">
        <ele>446.69</ele>
        <time>2018-02-22T08:32:29Z</time>
      </trkpt>
      <trkpt lat="43.74797" lon="7.14229">
        <ele>446.71</ele>
        <time>2018-02-22T08:32:31Z</time>
      </trkpt>
      <trkpt lat="43.74808" lon="7.14227">
        <ele>447.22</ele>
        <time>2018-02-22T08:32:40Z</time>
      </trkpt>
      <trkpt lat="43.74811" lon="7.14227">
        <ele>447.43</ele>
        <time>2018-02-22T08:32:43Z</time>
      </trkpt>
      <trkpt lat="43.74824" lon="7.14228">
        <ele>449.47</ele>
        <time>2018-02-22T08:33:00Z</time>
      </trkpt>
      <trkpt lat="43.74845" lon="7.1422">
        <ele>452.58</ele>
        <time>2018-02-22T08:33:27Z</time>
      </trkpt>
      <trkpt lat="43.74863" lon="7.14212">
        <ele>455.63</ele>
        <time>2018-02-22T08:33:55Z</time>
      </trkpt>
      <trkpt lat="43.74875" lon="7.14216">
        <ele>458.66</ele>
        <time>2018-02-22T08:34:22Z</time>
      </trkpt>
      <trkpt lat="43.74892" lon="7.14219">
        <ele>461.82</ele>
        <time>2018-02-22T08:34:46Z</time>
      </trkpt>
      <trkpt lat="43.74903" lon="7.14214">
        <ele>464.88</ele>
        <time>2018-02-22T08:35:13Z</time>
      </trkpt>
      <trkpt lat="43.74905" lon="7.14213">
        <ele>465.55</ele>
        <time>2018-02-22T08:35:21Z</time>
      </trkpt>
      <trkpt lat="43.74904" lon="7.14206">
        <ele>467.43</ele>
        <time>2018-02-22T08:35:39Z</time>
      </trkpt>
      <trkpt lat="43.74904" lon="7.14206">
        <ele>467.51</ele>
        <time>2018-02-22T08:35:40Z</time>
      </trkpt>
      <trkpt lat="43.7491" lon="7.14184">
        <ele>470.53</ele>
        <time>2018-02-22T08:36:02Z</time>
      </trkpt>
      <trkpt lat="43.74914" lon="7.14186">
        <ele>470.98</ele>
        <time>2018-02-22T08:36:06Z</time>
      </trkpt>
      <trkpt lat="43.74924" lon="7.1419">
        <ele>473.01</ele>
        <time>2018-02-22T08:36:26Z</time>
      </trkpt>
      <trkpt lat="43.74932" lon="7.14191">
        <ele>476.19</ele>
        <time>2018-02-22T08:36:53Z</time>
      </trkpt>
      <trkpt lat="43.74928" lon="7.14191">
        <ele>477.48</ele>
        <time>2018-02-22T08:37:09Z</time>
      </trkpt>
      <trkpt lat="43.74931" lon="7.1418">
        <ele>479.16</ele>
        <time>2018-02-22T08:37:26Z</time>
      </trkpt>
      <trkpt lat="43.74933" lon="7.14179">
        <ele>479.99</ele>
        <time>2018-02-22T08:37:35Z</time>
      </trkpt>
      <trkpt lat="43.74937" lon="7.14173">
        <ele>482.53</ele>
        <time>2018-02-22T08:37:56Z</time>
      </trkpt>
      <trkpt lat="43.7494" lon="7.14169">
        <ele>485.55</ele>
        <time>2018-02-22T08:38:18Z</time>
      </trkpt>
      <trkpt lat="43.74943" lon="7.14167">
        <ele>486.31</ele>
        <time>2018-02-22T08:38:33Z</time>
      </trkpt>
      <trkpt lat="43.74957" lon="7.14146">
        <ele>489.59</ele>
        <time>2018-02-22T08:39:03Z</time>
      </trkpt>
      <trkpt lat="43.7496" lon="7.14146">
        <ele>492.03</ele>
        <time>2018-02-22T08:39:22Z</time>
      </trkpt>
      <trkpt lat="43.74988" lon="7.14125">
        <ele>494.71</ele>
        <time>2018-02-22T08:39:46Z</time>
      </trkpt>
      <trkpt lat="43.74991" lon="7.14131">
        <ele>495.95</ele>
        <time>2018-02-22T08:39:59Z</time>
      </trkpt>
      <trkpt lat="43.74999" lon="7.1413">
        <ele>497.87</ele>
        <time>2018-02-22T08:40:17Z</time>
      </trkpt>
      <trkpt lat="43.7501" lon="7.1412">
        <ele>498.65</ele>
        <time>2018-02-22T08:40:26Z</time>
      </trkpt>
      <trkpt lat="43.75018" lon="7.14127">
        <ele>501.51</ele>
        <time>2018-02-22T08:40:47Z</time>
      </trkpt>
      <trkpt lat="43.75033" lon="7.14131">
        <ele>504.31</ele>
        <time>2018-02-22T08:41:10Z</time>
      </trkpt>
      <trkpt lat="43.75051" lon="7.14125">
        <ele>506.59</ele>
        <time>2018-02-22T08:41:27Z</time>
      </trkpt>
      <trkpt lat="43.75055" lon="7.14139">
        <ele>508.82</ele>
        <time>2018-02-22T08:41:45Z</time>
      </trkpt>
      <trkpt lat="43.75069" lon="7.14124">
        <ele>510</ele>
        <time>2018-02-22T08:42:01Z</time>
      </trkpt>
      <trkpt lat="43.75068" lon="7.14131">
        <ele>510.23</ele>
        <time>2018-02-22T08:42:13Z</time>
      </trkpt>
      <trkpt lat="43.75064" lon="7.14144">
        <ele>510.5</ele>
        <time>2018-02-22T08:42:29Z</time>
      </trkpt>
      <trkpt lat="43.75063" lon="7.14151">
        <ele>510.72</ele>
        <time>2018-02-22T08:42:38Z</time>
      </trkpt>
      <trkpt lat="43.75061" lon="7.1416">
        <ele>512.12</ele>
        <time>2018-02-22T08:42:45Z</time>
      </trkpt>
      <trkpt lat="43.75064" lon="7.1416">
        <ele>512.8</ele>
        <time>2018-02-22T08:42:50Z</time>
      </trkpt>
      <trkpt lat="43.75083" lon="7.14154">
        <ele>515.1</ele>
        <time>2018-02-22T08:43:12Z</time>
      </trkpt>
      <trkpt lat="43.75086" lon="7.14153">
        <ele>515.3</ele>
        <time>2018-02-22T08:43:14Z</time>
      </trkpt>
      <trkpt lat="43.7509" lon="7.14161">
        <ele>516.52</ele>
        <time>2018-02-22T08:43:25Z</time>
      </trkpt>
      <trkpt lat="43.75097" lon="7.14173">
        <ele>518.58</ele>
        <time>2018-02-22T08:43:44Z</time>
      </trkpt>
      <trkpt lat="43.751" lon="7.14179">
        <ele>520.14</ele>
        <time>2018-02-22T08:43:57Z</time>
      </trkpt>
      <trkpt lat="43.75108" lon="7.14179">
        <ele>521.4</ele>
        <time>2018-02-22T08:44:10Z</time>
      </trkpt>
      <trkpt lat="43.75123" lon="7.14171">
        <ele>522.57</ele>
        <time>2018-02-22T08:44:24Z</time>
      </trkpt>
      <trkpt lat="43.75126" lon="7.14173">
        <ele>522.83</ele>
        <time>2018-02-22T08:44:28Z</time>
      </trkpt>
      <trkpt lat="43.75133" lon="7.14181">
        <ele>524.43</ele>
        <time>2018-02-22T08:44:45Z</time>
      </trkpt>
      <trkpt lat="43.75136" lon="7.14179">
        <ele>524.73</ele>
        <time>2018-02-22T08:44:48Z</time>
      </trkpt>
      <trkpt lat="43.75138" lon="7.14181">
        <ele>525.05</ele>
        <time>2018-02-22T08:44:52Z</time>
      </trkpt>
      <trkpt lat="43.75141" lon="7.14198">
        <ele>525.88</ele>
        <time>2018-02-22T08:45:06Z</time>
      </trkpt>
      <trkpt lat="43.75149" lon="7.14221">
        <ele>526.56</ele>
        <time>2018-02-22T08:45:24Z</time>
      </trkpt>
      <trkpt lat="43.75164" lon="7.14216">
        <ele>527.3</ele>
        <time>2018-02-22T08:45:36Z</time>
      </trkpt>
      <trkpt lat="43.75177" lon="7.14208">
        <ele>528.86</ele>
        <time>2018-02-22T08:45:50Z</time>
      </trkpt>
      <trkpt lat="43.75183" lon="7.14219">
        <ele>530.28</ele>
        <time>2018-02-22T08:46:07Z</time>
      </trkpt>
      <trkpt lat="43.75186" lon="7.1422">
        <ele>530.3</ele>
        <time>2018-02-22T08:46:09Z</time>
      </trkpt>
      <trkpt lat="43.75201" lon="7.1422">
        <ele>531.38</ele>
        <time>2018-02-22T08:46:22Z</time>
      </trkpt>
      <trkpt lat="43.75212" lon="7.14222">
        <ele>532.14</ele>
        <time>2018-02-22T08:46:33Z</time>
      </trkpt>
      <trkpt lat="43.75216" lon="7.14228">
        <ele>532.7</ele>
        <time>2018-02-22T08:46:42Z</time>
      </trkpt>
      <trkpt lat="43.75228" lon="7.14229">
        <ele>535.9</ele>
        <time>2018-02-22T08:47:07Z</time>
      </trkpt>
      <trkpt lat="43.75246" lon="7.1424">
        <ele>539.02</ele>
        <time>2018-02-22T08:47:37Z</time>
      </trkpt>
      <trkpt lat="43.75259" lon="7.14245">
        <ele>542.15</ele>
        <time>2018-02-22T08:48:06Z</time>
      </trkpt>
      <trkpt lat="43.75271" lon="7.14247">
        <ele>545.22</ele>
        <time>2018-02-22T08:48:38Z</time>
      </trkpt>
      <trkpt lat="43.7529" lon="7.14243">
        <ele>547.22</ele>
        <time>2018-02-22T08:48:55Z</time>
      </trkpt>
      <trkpt lat="43.75295" lon="7.14249">
        <ele>547.85</ele>
        <time>2018-02-22T08:49:12Z</time>
      </trkpt>
      <trkpt lat="43.75296" lon="7.14248">
        <ele>547.59</ele>
        <time>2018-02-22T08:49:42Z</time>
      </trkpt>
      <trkpt lat="43.75297" lon="7.14244">
        <ele>547.42</ele>
        <time>2018-02-22T08:50:14Z</time>
      </trkpt>
      <trkpt lat="43.75297" lon="7.14244">
        <ele>547.42</ele>
        <time>2018-02-22T08:50:43Z</time>
      </trkpt>
      <trkpt lat="43.75291" lon="7.1425">
        <ele>547.33</ele>
        <time>2018-02-22T08:51:15Z</time>
      </trkpt>
      <trkpt lat="43.75296" lon="7.14247">
        <ele>547.27</ele>
        <time>2018-02-22T08:51:49Z</time>
      </trkpt>
      <trkpt lat="43.75294" lon="7.14249">
        <ele>547.36</ele>
        <time>2018-02-22T08:52:17Z</time>
      </trkpt>
      <trkpt lat="43.75293" lon="7.14247">
        <ele>547.36</ele>
        <time>2018-02-22T08:52:39Z</time>
      </trkpt>
      <trkpt lat="43.75294" lon="7.14248">
        <ele>547.36</ele>
        <time>2018-02-22T08:53:04Z</time>
      </trkpt>
      <trkpt lat="43.75295" lon="7.14246">
        <ele>547.36</ele>
        <time>2018-02-22T08:53:28Z</time>
      </trkpt>
      <trkpt lat="43.75293" lon="7.14249">
        <ele>547.36</ele>
        <time>2018-02-22T08:53:55Z</time>
      </trkpt>
      <trkpt lat="43.75294" lon="7.14246">
        <ele>547.36</ele>
        <time>2018-02-22T08:54:30Z</time>
      </trkpt>
      <trkpt lat="43.75286" lon="7.14246">
        <ele>547.36</ele>
        <time>2018-02-22T08:55:00Z</time>
      </trkpt>
      <trkpt lat="43.75286" lon="7.14251">
        <ele>547.36</ele>
        <time>2018-02-22T08:55:30Z</time>
      </trkpt>
      <trkpt lat="43.75289" lon="7.14247">
        <ele>547.36</ele>
        <time>2018-02-22T08:55:50Z</time>
      </trkpt>
      <trkpt lat="43.75297" lon="7.14249">
        <ele>547.36</ele>
        <time>2018-02-22T08:56:19Z</time>
      </trkpt>
      <trkpt lat="43.75315" lon="7.14269">
        <ele>547.36</ele>
        <time>2018-02-22T08:56:45Z</time>
      </trkpt>
      <trkpt lat="43.75333" lon="7.14277">
        <ele>551.78</ele>
        <time>2018-02-22T08:57:07Z</time>
      </trkpt>
      <trkpt lat="43.75334" lon="7.14277">
        <ele>552</ele>
        <time>2018-02-22T08:57:08Z</time>
      </trkpt>
      <trkpt lat="43.75345" lon="7.1428">
        <ele>553.55</ele>
        <time>2018-02-22T08:57:28Z</time>
      </trkpt>
      <trkpt lat="43.75355" lon="7.14286">
        <ele>555.7</ele>
        <time>2018-02-22T08:57:45Z</time>
      </trkpt>
      <trkpt lat="43.75368" lon="7.14289">
        <ele>557.55</ele>
        <time>2018-02-22T08:58:02Z</time>
      </trkpt>
      <trkpt lat="43.75381" lon="7.14293">
        <ele>559.44</ele>
        <time>2018-02-22T08:58:20Z</time>
      </trkpt>
      <trkpt lat="43.75388" lon="7.14297">
        <ele>561.81</ele>
        <time>2018-02-22T08:58:37Z</time>
      </trkpt>
      <trkpt lat="43.75384" lon="7.14284">
        <ele>564.31</ele>
        <time>2018-02-22T08:58:55Z</time>
      </trkpt>
      <trkpt lat="43.75371" lon="7.14277">
        <ele>566.79</ele>
        <time>2018-02-22T08:59:16Z</time>
      </trkpt>
      <trkpt lat="43.75361" lon="7.14261">
        <ele>569.7</ele>
        <time>2018-02-22T08:59:41Z</time>
      </trkpt>
      <trkpt lat="43.75363" lon="7.14252">
        <ele>572.77</ele>
        <time>2018-02-22T09:00:05Z</time>
      </trkpt>
      <trkpt lat="43.75374" lon="7.14256">
        <ele>574.66</ele>
        <time>2018-02-22T09:00:25Z</time>
      </trkpt>
      <trkpt lat="43.75387" lon="7.14257">
        <ele>577.73</ele>
        <time>2018-02-22T09:00:48Z</time>
      </trkpt>
      <trkpt lat="43.75399" lon="7.14266">
        <ele>580.81</ele>
        <time>2018-02-22T09:01:14Z</time>
      </trkpt>
      <trkpt lat="43.75416" lon="7.14276">
        <ele>583.37</ele>
        <time>2018-02-22T09:01:41Z</time>
      </trkpt>
      <trkpt lat="43.75434" lon="7.14287">
        <ele>585.51</ele>
        <time>2018-02-22T09:02:06Z</time>
      </trkpt>
      <trkpt lat="43.7545" lon="7.14299">
        <ele>588.52</ele>
        <time>2018-02-22T09:02:35Z</time>
      </trkpt>
      <trkpt lat="43.75469" lon="7.14312">
        <ele>590.42</ele>
        <time>2018-02-22T09:03:02Z</time>
      </trkpt>
      <trkpt lat="43.75486" lon="7.14318">
        <ele>593.44</ele>
        <time>2018-02-22T09:03:29Z</time>
      </trkpt>
      <trkpt lat="43.75505" lon="7.14326">
        <ele>595.91</ele>
        <time>2018-02-22T09:03:56Z</time>
      </trkpt>
      <trkpt lat="43.75525" lon="7.1433">
        <ele>598.9</ele>
        <time>2018-02-22T09:04:24Z</time>
      </trkpt>
      <trkpt lat="43.75535" lon="7.14325">
        <ele>601.94</ele>
        <time>2018-02-22T09:04:46Z</time>
      </trkpt>
      <trkpt lat="43.75548" lon="7.14323">
        <ele>604.94</ele>
        <time>2018-02-22T09:05:12Z</time>
      </trkpt>
      <trkpt lat="43.75564" lon="7.14325">
        <ele>607.21</ele>
        <time>2018-02-22T09:05:39Z</time>
      </trkpt>
      <trkpt lat="43.7558" lon="7.14325">
        <ele>609.55</ele>
        <time>2018-02-22T09:06:04Z</time>
      </trkpt>
      <trkpt lat="43.75599" lon="7.14323">
        <ele>612.21</ele>
        <time>2018-02-22T09:06:33Z</time>
      </trkpt>
      <trkpt lat="43.7561" lon="7.14323">
        <ele>615.12</ele>
        <time>2018-02-22T09:06:58Z</time>
      </trkpt>
      <trkpt lat="43.75623" lon="7.14319">
        <ele>617.62</ele>
        <time>2018-02-22T09:07:23Z</time>
      </trkpt>
      <trkpt lat="43.75635" lon="7.14312">
        <ele>620.46</ele>
        <time>2018-02-22T09:07:52Z</time>
      </trkpt>
      <trkpt lat="43.75648" lon="7.14314">
        <ele>623.1</ele>
        <time>2018-02-22T09:08:22Z</time>
      </trkpt>
      <trkpt lat="43.75664" lon="7.14311">
        <ele>625.79</ele>
        <time>2018-02-22T09:08:50Z</time>
      </trkpt>
      <trkpt lat="43.75679" lon="7.1431">
        <ele>628.82</ele>
        <time>2018-02-22T09:09:16Z</time>
      </trkpt>
      <trkpt lat="43.75696" lon="7.14307">
        <ele>631.65</ele>
        <time>2018-02-22T09:09:48Z</time>
      </trkpt>
      <trkpt lat="43.75709" lon="7.14313">
        <ele>633.49</ele>
        <time>2018-02-22T09:10:11Z</time>
      </trkpt>
      <trkpt lat="43.75722" lon="7.14316">
        <ele>634.89</ele>
        <time>2018-02-22T09:10:34Z</time>
      </trkpt>
      <trkpt lat="43.75736" lon="7.14322">
        <ele>636.27</ele>
        <time>2018-02-22T09:11:00Z</time>
      </trkpt>
      <trkpt lat="43.75747" lon="7.14322">
        <ele>638.07</ele>
        <time>2018-02-22T09:11:27Z</time>
      </trkpt>
      <trkpt lat="43.75746" lon="7.14327">
        <ele>638.2</ele>
        <time>2018-02-22T09:11:49Z</time>
      </trkpt>
      <trkpt lat="43.75753" lon="7.1432">
        <ele>639.04</ele>
        <time>2018-02-22T09:12:12Z</time>
      </trkpt>
      <trkpt lat="43.75763" lon="7.14316">
        <ele>640.82</ele>
        <time>2018-02-22T09:12:34Z</time>
      </trkpt>
      <trkpt lat="43.75775" lon="7.1431">
        <ele>643.18</ele>
        <time>2018-02-22T09:12:59Z</time>
      </trkpt>
      <trkpt lat="43.75788" lon="7.143">
        <ele>646.22</ele>
        <time>2018-02-22T09:13:29Z</time>
      </trkpt>
      <trkpt lat="43.75794" lon="7.14286">
        <ele>649.37</ele>
        <time>2018-02-22T09:13:54Z</time>
      </trkpt>
      <trkpt lat="43.758" lon="7.14279">
        <ele>651.5</ele>
        <time>2018-02-22T09:14:12Z</time>
      </trkpt>
      <trkpt lat="43.75811" lon="7.14272">
        <ele>653.46</ele>
        <time>2018-02-22T09:14:33Z</time>
      </trkpt>
      <trkpt lat="43.75819" lon="7.14263">
        <ele>655.8</ele>
        <time>2018-02-22T09:15:00Z</time>
      </trkpt>
      <trkpt lat="43.75824" lon="7.14258">
        <ele>657.91</ele>
        <time>2018-02-22T09:15:21Z</time>
      </trkpt>
      <trkpt lat="43.75825" lon="7.14255">
        <ele>659.61</ele>
        <time>2018-02-22T09:15:41Z</time>
      </trkpt>
      <trkpt lat="43.75836" lon="7.14247">
        <ele>661.81</ele>
        <time>2018-02-22T09:16:04Z</time>
      </trkpt>
      <trkpt lat="43.7584" lon="7.1424">
        <ele>664.26</ele>
        <time>2018-02-22T09:16:24Z</time>
      </trkpt>
      <trkpt lat="43.75845" lon="7.14226">
        <ele>666.4</ele>
        <time>2018-02-22T09:16:45Z</time>
      </trkpt>
      <trkpt lat="43.7586" lon="7.1422">
        <ele>668.61</ele>
        <time>2018-02-22T09:17:09Z</time>
      </trkpt>
      <trkpt lat="43.75868" lon="7.14212">
        <ele>670.62</ele>
        <time>2018-02-22T09:17:29Z</time>
      </trkpt>
      <trkpt lat="43.75878" lon="7.14204">
        <ele>672.97</ele>
        <time>2018-02-22T09:17:53Z</time>
      </trkpt>
      <trkpt lat="43.75889" lon="7.14194">
        <ele>674.95</ele>
        <time>2018-02-22T09:18:14Z</time>
      </trkpt>
      <trkpt lat="43.75899" lon="7.14184">
        <ele>677.37</ele>
        <time>2018-02-22T09:18:37Z</time>
      </trkpt>
      <trkpt lat="43.75904" lon="7.14179">
        <ele>678.95</ele>
        <time>2018-02-22T09:18:53Z</time>
      </trkpt>
      <trkpt lat="43.75914" lon="7.14168">
        <ele>680.55</ele>
        <time>2018-02-22T09:19:16Z</time>
      </trkpt>
      <trkpt lat="43.75926" lon="7.14159">
        <ele>682.9</ele>
        <time>2018-02-22T09:19:41Z</time>
      </trkpt>
      <trkpt lat="43.75935" lon="7.1415">
        <ele>685.07</ele>
        <time>2018-02-22T09:20:04Z</time>
      </trkpt>
      <trkpt lat="43.75941" lon="7.14143">
        <ele>686.98</ele>
        <time>2018-02-22T09:20:22Z</time>
      </trkpt>
      <trkpt lat="43.75949" lon="7.14136">
        <ele>689.12</ele>
        <time>2018-02-22T09:20:44Z</time>
      </trkpt>
      <trkpt lat="43.75944" lon="7.14133">
        <ele>691.03</ele>
        <time>2018-02-22T09:21:06Z</time>
      </trkpt>
      <trkpt lat="43.75932" lon="7.14132">
        <ele>693.17</ele>
        <time>2018-02-22T09:21:30Z</time>
      </trkpt>
      <trkpt lat="43.75934" lon="7.14129">
        <ele>695.08</ele>
        <time>2018-02-22T09:21:51Z</time>
      </trkpt>
      <trkpt lat="43.75942" lon="7.14119">
        <ele>697.06</ele>
        <time>2018-02-22T09:22:13Z</time>
      </trkpt>
      <trkpt lat="43.7595" lon="7.14111">
        <ele>699.01</ele>
        <time>2018-02-22T09:22:33Z</time>
      </trkpt>
      <trkpt lat="43.75958" lon="7.141">
        <ele>701.6</ele>
        <time>2018-02-22T09:22:56Z</time>
      </trkpt>
      <trkpt lat="43.75967" lon="7.14089">
        <ele>703.81</ele>
        <time>2018-02-22T09:23:19Z</time>
      </trkpt>
      <trkpt lat="43.75971" lon="7.14086">
        <ele>704.68</ele>
        <time>2018-02-22T09:23:38Z</time>
      </trkpt>
      <trkpt lat="43.75971" lon="7.14084">
        <ele>705.04</ele>
        <time>2018-02-22T09:23:41Z</time>
      </trkpt>
      <trkpt lat="43.75981" lon="7.14072">
        <ele>707.19</ele>
        <time>2018-02-22T09:24:02Z</time>
      </trkpt>
      <trkpt lat="43.7599" lon="7.14055">
        <ele>709.94</ele>
        <time>2018-02-22T09:24:29Z</time>
      </trkpt>
      <trkpt lat="43.75996" lon="7.14046">
        <ele>711.46</ele>
        <time>2018-02-22T09:24:46Z</time>
      </trkpt>
      <trkpt lat="43.76007" lon="7.14037">
        <ele>713.8</ele>
        <time>2018-02-22T09:25:11Z</time>
      </trkpt>
      <trkpt lat="43.76021" lon="7.14027">
        <ele>716.4</ele>
        <time>2018-02-22T09:25:39Z</time>
      </trkpt>
      <trkpt lat="43.76029" lon="7.14024">
        <ele>718.36</ele>
        <time>2018-02-22T09:25:57Z</time>
      </trkpt>
      <trkpt lat="43.76038" lon="7.14018">
        <ele>720.52</ele>
        <time>2018-02-22T09:26:18Z</time>
      </trkpt>
      <trkpt lat="43.76052" lon="7.14012">
        <ele>723.19</ele>
        <time>2018-02-22T09:26:40Z</time>
      </trkpt>
      <trkpt lat="43.76054" lon="7.14005">
        <ele>725.61</ele>
        <time>2018-02-22T09:27:05Z</time>
      </trkpt>
      <trkpt lat="43.76064" lon="7.13998">
        <ele>727.82</ele>
        <time>2018-02-22T09:27:27Z</time>
      </trkpt>
      <trkpt lat="43.76061" lon="7.13988">
        <ele>730.41</ele>
        <time>2018-02-22T09:27:49Z</time>
      </trkpt>
      <trkpt lat="43.7606" lon="7.13984">
        <ele>732.17</ele>
        <time>2018-02-22T09:28:13Z</time>
      </trkpt>
      <trkpt lat="43.76067" lon="7.13979">
        <ele>734.23</ele>
        <time>2018-02-22T09:28:31Z</time>
      </trkpt>
      <trkpt lat="43.76079" lon="7.13972">
        <ele>736.4</ele>
        <time>2018-02-22T09:28:51Z</time>
      </trkpt>
      <trkpt lat="43.76088" lon="7.13961">
        <ele>738.96</ele>
        <time>2018-02-22T09:29:21Z</time>
      </trkpt>
      <trkpt lat="43.76093" lon="7.13957">
        <ele>741.24</ele>
        <time>2018-02-22T09:29:39Z</time>
      </trkpt>
      <trkpt lat="43.76104" lon="7.13952">
        <ele>743.74</ele>
        <time>2018-02-22T09:30:07Z</time>
      </trkpt>
      <trkpt lat="43.76106" lon="7.13951">
        <ele>744.16</ele>
        <time>2018-02-22T09:30:11Z</time>
      </trkpt>
      <trkpt lat="43.76113" lon="7.13945">
        <ele>746.46</ele>
        <time>2018-02-22T09:30:37Z</time>
      </trkpt>
      <trkpt lat="43.76125" lon="7.13941">
        <ele>748.17</ele>
        <time>2018-02-22T09:30:59Z</time>
      </trkpt>
      <trkpt lat="43.76129" lon="7.13935">
        <ele>750.11</ele>
        <time>2018-02-22T09:31:30Z</time>
      </trkpt>
      <trkpt lat="43.76136" lon="7.13932">
        <ele>750.4</ele>
        <time>2018-02-22T09:32:01Z</time>
      </trkpt>
      <trkpt lat="43.76142" lon="7.13927">
        <ele>753.02</ele>
        <time>2018-02-22T09:32:27Z</time>
      </trkpt>
      <trkpt lat="43.76151" lon="7.13917">
        <ele>755.44</ele>
        <time>2018-02-22T09:32:49Z</time>
      </trkpt>
      <trkpt lat="43.76161" lon="7.13912">
        <ele>758.45</ele>
        <time>2018-02-22T09:33:15Z</time>
      </trkpt>
      <trkpt lat="43.7617" lon="7.13901">
        <ele>761.16</ele>
        <time>2018-02-22T09:33:42Z</time>
      </trkpt>
      <trkpt lat="43.7616" lon="7.13887">
        <ele>763.62</ele>
        <time>2018-02-22T09:34:08Z</time>
      </trkpt>
      <trkpt lat="43.76153" lon="7.13876">
        <ele>765.32</ele>
        <time>2018-02-22T09:34:29Z</time>
      </trkpt>
      <trkpt lat="43.76144" lon="7.13865">
        <ele>766.88</ele>
        <time>2018-02-22T09:34:48Z</time>
      </trkpt>
      <trkpt lat="43.76138" lon="7.13857">
        <ele>768.31</ele>
        <time>2018-02-22T09:35:03Z</time>
      </trkpt>
      <trkpt lat="43.76131" lon="7.13847">
        <ele>770.76</ele>
        <time>2018-02-22T09:35:26Z</time>
      </trkpt>
      <trkpt lat="43.7613" lon="7.13831">
        <ele>772.88</ele>
        <time>2018-02-22T09:35:49Z</time>
      </trkpt>
      <trkpt lat="43.76128" lon="7.13818">
        <ele>775.12</ele>
        <time>2018-02-22T09:36:14Z</time>
      </trkpt>
      <trkpt lat="43.76129" lon="7.13811">
        <ele>775.91</ele>
        <time>2018-02-22T09:36:37Z</time>
      </trkpt>
      <trkpt lat="43.76129" lon="7.13794">
        <ele>777.09</ele>
        <time>2018-02-22T09:37:07Z</time>
      </trkpt>
      <trkpt lat="43.76129" lon="7.13766">
        <ele>778.79</ele>
        <time>2018-02-22T09:37:35Z</time>
      </trkpt>
      <trkpt lat="43.7613" lon="7.13759">
        <ele>779.19</ele>
        <time>2018-02-22T09:37:57Z</time>
      </trkpt>
      <trkpt lat="43.76131" lon="7.1373">
        <ele>779.64</ele>
        <time>2018-02-22T09:38:23Z</time>
      </trkpt>
      <trkpt lat="43.7613" lon="7.13706">
        <ele>779.55</ele>
        <time>2018-02-22T09:38:41Z</time>
      </trkpt>
      <trkpt lat="43.76128" lon="7.13672">
        <ele>779.12</ele>
        <time>2018-02-22T09:39:08Z</time>
      </trkpt>
      <trkpt lat="43.76125" lon="7.13648">
        <ele>779.18</ele>
        <time>2018-02-22T09:39:31Z</time>
      </trkpt>
      <trkpt lat="43.76121" lon="7.13628">
        <ele>779.18</ele>
        <time>2018-02-22T09:39:52Z</time>
      </trkpt>
      <trkpt lat="43.76126" lon="7.13605">
        <ele>779.18</ele>
        <time>2018-02-22T09:40:18Z</time>
      </trkpt>
      <trkpt lat="43.76142" lon="7.13581">
        <ele>779.18</ele>
        <time>2018-02-22T09:40:47Z</time>
      </trkpt>
      <trkpt lat="43.76146" lon="7.13577">
        <ele>781.93</ele>
        <time>2018-02-22T09:41:08Z</time>
      </trkpt>
      <trkpt lat="43.76159" lon="7.13571">
        <ele>782.15</ele>
        <time>2018-02-22T09:41:26Z</time>
      </trkpt>
      <trkpt lat="43.76155" lon="7.1357">
        <ele>781.83</ele>
        <time>2018-02-22T09:41:44Z</time>
      </trkpt>
      <trkpt lat="43.76156" lon="7.13572">
        <ele>781.89</ele>
        <time>2018-02-22T09:42:14Z</time>
      </trkpt>
      <trkpt lat="43.76154" lon="7.13572">
        <ele>781.89</ele>
        <time>2018-02-22T09:42:16Z</time>
      </trkpt>
      <trkpt lat="43.76152" lon="7.13556">
        <ele>781.97</ele>
        <time>2018-02-22T09:42:29Z</time>
      </trkpt>
      <trkpt lat="43.76156" lon="7.13536">
        <ele>782.44</ele>
        <time>2018-02-22T09:42:45Z</time>
      </trkpt>
      <trkpt lat="43.76155" lon="7.13528">
        <ele>782.48</ele>
        <time>2018-02-22T09:42:51Z</time>
      </trkpt>
      <trkpt lat="43.76152" lon="7.1351">
        <ele>782.67</ele>
        <time>2018-02-22T09:43:04Z</time>
      </trkpt>
      <trkpt lat="43.76142" lon="7.13487">
        <ele>782.94</ele>
        <time>2018-02-22T09:43:22Z</time>
      </trkpt>
      <trkpt lat="43.76135" lon="7.13464">
        <ele>783.68</ele>
        <time>2018-02-22T09:43:40Z</time>
      </trkpt>
      <trkpt lat="43.76135" lon="7.13444">
        <ele>784.09</ele>
        <time>2018-02-22T09:43:58Z</time>
      </trkpt>
      <trkpt lat="43.76135" lon="7.13435">
        <ele>784.38</ele>
        <time>2018-02-22T09:44:15Z</time>
      </trkpt>
      <trkpt lat="43.76136" lon="7.13423">
        <ele>784.65</ele>
        <time>2018-02-22T09:44:30Z</time>
      </trkpt>
      <trkpt lat="43.76137" lon="7.13408">
        <ele>785.06</ele>
        <time>2018-02-22T09:44:43Z</time>
      </trkpt>
      <trkpt lat="43.76142" lon="7.13395">
        <ele>785.59</ele>
        <time>2018-02-22T09:44:58Z</time>
      </trkpt>
      <trkpt lat="43.76148" lon="7.13379">
        <ele>786.6</ele>
        <time>2018-02-22T09:45:15Z</time>
      </trkpt>
      <trkpt lat="43.76156" lon="7.13363">
        <ele>786.81</ele>
        <time>2018-02-22T09:45:32Z</time>
      </trkpt>
      <trkpt lat="43.76161" lon="7.13349">
        <ele>787.02</ele>
        <time>2018-02-22T09:45:45Z</time>
      </trkpt>
      <trkpt lat="43.76165" lon="7.13337">
        <ele>787.24</ele>
        <time>2018-02-22T09:45:56Z</time>
      </trkpt>
      <trkpt lat="43.76167" lon="7.13315">
        <ele>787.83</ele>
        <time>2018-02-22T09:46:14Z</time>
      </trkpt>
      <trkpt lat="43.76173" lon="7.13293">
        <ele>788.29</ele>
        <time>2018-02-22T09:46:33Z</time>
      </trkpt>
      <trkpt lat="43.76177" lon="7.13279">
        <ele>788.47</ele>
        <time>2018-02-22T09:46:46Z</time>
      </trkpt>
      <trkpt lat="43.76181" lon="7.13262">
        <ele>788.41</ele>
        <time>2018-02-22T09:47:02Z</time>
      </trkpt>
      <trkpt lat="43.76186" lon="7.13245">
        <ele>788.35</ele>
        <time>2018-02-22T09:47:19Z</time>
      </trkpt>
      <trkpt lat="43.76191" lon="7.13226">
        <ele>788.46</ele>
        <time>2018-02-22T09:47:33Z</time>
      </trkpt>
      <trkpt lat="43.76193" lon="7.13221">
        <ele>788.48</ele>
        <time>2018-02-22T09:47:37Z</time>
      </trkpt>
      <trkpt lat="43.76198" lon="7.13205">
        <ele>787.9</ele>
        <time>2018-02-22T09:47:54Z</time>
      </trkpt>
      <trkpt lat="43.76204" lon="7.13188">
        <ele>787.54</ele>
        <time>2018-02-22T09:48:09Z</time>
      </trkpt>
      <trkpt lat="43.76207" lon="7.1318">
        <ele>787.3</ele>
        <time>2018-02-22T09:48:18Z</time>
      </trkpt>
      <trkpt lat="43.76208" lon="7.13174">
        <ele>787.22</ele>
        <time>2018-02-22T09:48:22Z</time>
      </trkpt>
      <trkpt lat="43.76206" lon="7.13157">
        <ele>787.37</ele>
        <time>2018-02-22T09:48:44Z</time>
      </trkpt>
      <trkpt lat="43.7621" lon="7.13147">
        <ele>787.23</ele>
        <time>2018-02-22T09:48:59Z</time>
      </trkpt>
      <trkpt lat="43.7621" lon="7.13132">
        <ele>786.4</ele>
        <time>2018-02-22T09:49:11Z</time>
      </trkpt>
      <trkpt lat="43.7621" lon="7.13121">
        <ele>784.49</ele>
        <time>2018-02-22T09:49:24Z</time>
      </trkpt>
      <trkpt lat="43.76219" lon="7.13095">
        <ele>781.27</ele>
        <time>2018-02-22T09:49:45Z</time>
      </trkpt>
      <trkpt lat="43.76225" lon="7.13078">
        <ele>778.54</ele>
        <time>2018-02-22T09:50:01Z</time>
      </trkpt>
      <trkpt lat="43.76238" lon="7.13052">
        <ele>775.36</ele>
        <time>2018-02-22T09:50:21Z</time>
      </trkpt>
      <trkpt lat="43.76248" lon="7.13034">
        <ele>772.48</ele>
        <time>2018-02-22T09:50:45Z</time>
      </trkpt>
      <trkpt lat="43.76255" lon="7.13025">
        <ele>772.33</ele>
        <time>2018-02-22T09:50:54Z</time>
      </trkpt>
      <trkpt lat="43.7627" lon="7.13008">
        <ele>770.96</ele>
        <time>2018-02-22T09:51:14Z</time>
      </trkpt>
      <trkpt lat="43.76278" lon="7.13002">
        <ele>770.43</ele>
        <time>2018-02-22T09:51:22Z</time>
      </trkpt>
      <trkpt lat="43.76291" lon="7.12991">
        <ele>768.69</ele>
        <time>2018-02-22T09:51:39Z</time>
      </trkpt>
      <trkpt lat="43.76298" lon="7.12981">
        <ele>766.49</ele>
        <time>2018-02-22T09:51:55Z</time>
      </trkpt>
      <trkpt lat="43.76306" lon="7.12971">
        <ele>765.1</ele>
        <time>2018-02-22T09:52:08Z</time>
      </trkpt>
      <trkpt lat="43.76313" lon="7.12966">
        <ele>763.86</ele>
        <time>2018-02-22T09:52:18Z</time>
      </trkpt>
      <trkpt lat="43.76322" lon="7.12963">
        <ele>762.76</ele>
        <time>2018-02-22T09:52:29Z</time>
      </trkpt>
      <trkpt lat="43.76332" lon="7.12959">
        <ele>761.82</ele>
        <time>2018-02-22T09:52:42Z</time>
      </trkpt>
      <trkpt lat="43.76341" lon="7.12955">
        <ele>760.58</ele>
        <time>2018-02-22T09:52:54Z</time>
      </trkpt>
      <trkpt lat="43.76349" lon="7.12949">
        <ele>759.24</ele>
        <time>2018-02-22T09:53:07Z</time>
      </trkpt>
      <trkpt lat="43.76349" lon="7.12949">
        <ele>759.11</ele>
        <time>2018-02-22T09:53:08Z</time>
      </trkpt>
      <trkpt lat="43.7636" lon="7.12945">
        <ele>757.92</ele>
        <time>2018-02-22T09:53:22Z</time>
      </trkpt>
      <trkpt lat="43.76375" lon="7.1294">
        <ele>754.84</ele>
        <time>2018-02-22T09:53:44Z</time>
      </trkpt>
      <trkpt lat="43.76389" lon="7.12936">
        <ele>752.97</ele>
        <time>2018-02-22T09:54:00Z</time>
      </trkpt>
      <trkpt lat="43.76403" lon="7.12936">
        <ele>751.63</ele>
        <time>2018-02-22T09:54:10Z</time>
      </trkpt>
      <trkpt lat="43.76414" lon="7.12937">
        <ele>748.99</ele>
        <time>2018-02-22T09:54:24Z</time>
      </trkpt>
      <trkpt lat="43.76431" lon="7.12936">
        <ele>745.86</ele>
        <time>2018-02-22T09:55:01Z</time>
      </trkpt>
      <trkpt lat="43.7644" lon="7.12939">
        <ele>745.68</ele>
        <time>2018-02-22T09:55:06Z</time>
      </trkpt>
      <trkpt lat="43.7647" lon="7.1294">
        <ele>744.43</ele>
        <time>2018-02-22T09:55:27Z</time>
      </trkpt>
      <trkpt lat="43.76479" lon="7.12942">
        <ele>744.53</ele>
        <time>2018-02-22T09:55:36Z</time>
      </trkpt>
      <trkpt lat="43.76494" lon="7.12942">
        <ele>742.79</ele>
        <time>2018-02-22T09:55:53Z</time>
      </trkpt>
      <trkpt lat="43.76512" lon="7.12936">
        <ele>741.39</ele>
        <time>2018-02-22T09:56:08Z</time>
      </trkpt>
      <trkpt lat="43.76522" lon="7.12935">
        <ele>739.73</ele>
        <time>2018-02-22T09:56:19Z</time>
      </trkpt>
      <trkpt lat="43.76539" lon="7.12939">
        <ele>738.47</ele>
        <time>2018-02-22T09:56:38Z</time>
      </trkpt>
      <trkpt lat="43.76551" lon="7.1294">
        <ele>738.62</ele>
        <time>2018-02-22T09:56:52Z</time>
      </trkpt>
      <trkpt lat="43.76561" lon="7.12943">
        <ele>738.58</ele>
        <time>2018-02-22T09:57:03Z</time>
      </trkpt>
      <trkpt lat="43.76572" lon="7.12945">
        <ele>737.72</ele>
        <time>2018-02-22T09:57:12Z</time>
      </trkpt>
      <trkpt lat="43.76583" lon="7.12945">
        <ele>737.74</ele>
        <time>2018-02-22T09:57:22Z</time>
      </trkpt>
      <trkpt lat="43.76591" lon="7.12951">
        <ele>737.21</ele>
        <time>2018-02-22T09:57:35Z</time>
      </trkpt>
      <trkpt lat="43.76605" lon="7.12955">
        <ele>736.21</ele>
        <time>2018-02-22T09:57:47Z</time>
      </trkpt>
      <trkpt lat="43.76606" lon="7.12955">
        <ele>736.11</ele>
        <time>2018-02-22T09:57:48Z</time>
      </trkpt>
      <trkpt lat="43.76618" lon="7.12956">
        <ele>734.94</ele>
        <time>2018-02-22T09:58:00Z</time>
      </trkpt>
      <trkpt lat="43.76626" lon="7.12961">
        <ele>734.17</ele>
        <time>2018-02-22T09:58:10Z</time>
      </trkpt>
      <trkpt lat="43.7664" lon="7.12966">
        <ele>733.04</ele>
        <time>2018-02-22T09:58:24Z</time>
      </trkpt>
      <trkpt lat="43.76657" lon="7.12969">
        <ele>731.57</ele>
        <time>2018-02-22T09:58:40Z</time>
      </trkpt>
      <trkpt lat="43.76673" lon="7.12979">
        <ele>729.35</ele>
        <time>2018-02-22T09:59:00Z</time>
      </trkpt>
      <trkpt lat="43.76692" lon="7.12985">
        <ele>726.56</ele>
        <time>2018-02-22T09:59:31Z</time>
      </trkpt>
      <trkpt lat="43.76694" lon="7.12984">
        <ele>725.89</ele>
        <time>2018-02-22T09:59:35Z</time>
      </trkpt>
      <trkpt lat="43.7671" lon="7.12983">
        <ele>724.98</ele>
        <time>2018-02-22T09:59:43Z</time>
      </trkpt>
      <trkpt lat="43.76721" lon="7.12979">
        <ele>722.39</ele>
        <time>2018-02-22T10:00:03Z</time>
      </trkpt>
      <trkpt lat="43.76738" lon="7.12965">
        <ele>720.46</ele>
        <time>2018-02-22T10:00:22Z</time>
      </trkpt>
      <trkpt lat="43.7674" lon="7.12959">
        <ele>719.5</ele>
        <time>2018-02-22T10:00:27Z</time>
      </trkpt>
      <trkpt lat="43.7674" lon="7.12954">
        <ele>719.25</ele>
        <time>2018-02-22T10:00:30Z</time>
      </trkpt>
      <trkpt lat="43.76748" lon="7.12923">
        <ele>718.99</ele>
        <time>2018-02-22T10:00:53Z</time>
      </trkpt>
      <trkpt lat="43.76745" lon="7.12909">
        <ele>719.48</ele>
        <time>2018-02-22T10:01:08Z</time>
      </trkpt>
      <trkpt lat="43.7674" lon="7.12904">
        <ele>719.49</ele>
        <time>2018-02-22T10:01:13Z</time>
      </trkpt>
      <trkpt lat="43.76738" lon="7.129">
        <ele>719.28</ele>
        <time>2018-02-22T10:01:17Z</time>
      </trkpt>
      <trkpt lat="43.76731" lon="7.12894">
        <ele>718.88</ele>
        <time>2018-02-22T10:01:29Z</time>
      </trkpt>
      <trkpt lat="43.76727" lon="7.12887">
        <ele>718.57</ele>
        <time>2018-02-22T10:01:44Z</time>
      </trkpt>
      <trkpt lat="43.76722" lon="7.12883">
        <ele>718.5</ele>
        <time>2018-02-22T10:01:49Z</time>
      </trkpt>
      <trkpt lat="43.76714" lon="7.12877">
        <ele>718.52</ele>
        <time>2018-02-22T10:01:57Z</time>
      </trkpt>
      <trkpt lat="43.76708" lon="7.12872">
        <ele>718.78</ele>
        <time>2018-02-22T10:02:03Z</time>
      </trkpt>
      <trkpt lat="43.76697" lon="7.12862">
        <ele>719.55</ele>
        <time>2018-02-22T10:02:21Z</time>
      </trkpt>
      <trkpt lat="43.76693" lon="7.12856">
        <ele>720.02</ele>
        <time>2018-02-22T10:02:29Z</time>
      </trkpt>
      <trkpt lat="43.76689" lon="7.12852">
        <ele>719.94</ele>
        <time>2018-02-22T10:02:33Z</time>
      </trkpt>
      <trkpt lat="43.7668" lon="7.12848">
        <ele>719.45</ele>
        <time>2018-02-22T10:02:43Z</time>
      </trkpt>
      <trkpt lat="43.76671" lon="7.12839">
        <ele>719.45</ele>
        <time>2018-02-22T10:02:57Z</time>
      </trkpt>
      <trkpt lat="43.76657" lon="7.12825">
        <ele>719.45</ele>
        <time>2018-02-22T10:03:18Z</time>
      </trkpt>
      <trkpt lat="43.76651" lon="7.1282">
        <ele>719.02</ele>
        <time>2018-02-22T10:03:25Z</time>
      </trkpt>
      <trkpt lat="43.76635" lon="7.12814">
        <ele>718.67</ele>
        <time>2018-02-22T10:03:42Z</time>
      </trkpt>
      <trkpt lat="43.7663" lon="7.1281">
        <ele>718.46</ele>
        <time>2018-02-22T10:03:46Z</time>
      </trkpt>
      <trkpt lat="43.76623" lon="7.12802">
        <ele>719.16</ele>
        <time>2018-02-22T10:03:58Z</time>
      </trkpt>
      <trkpt lat="43.76613" lon="7.12787">
        <ele>719.46</ele>
        <time>2018-02-22T10:04:18Z</time>
      </trkpt>
      <trkpt lat="43.76609" lon="7.12786">
        <ele>719.5</ele>
        <time>2018-02-22T10:04:22Z</time>
      </trkpt>
      <trkpt lat="43.7658" lon="7.12758">
        <ele>721.79</ele>
        <time>2018-02-22T10:05:07Z</time>
      </trkpt>
      <trkpt lat="43.76569" lon="7.12744">
        <ele>721.95</ele>
        <time>2018-02-22T10:05:23Z</time>
      </trkpt>
      <trkpt lat="43.76559" lon="7.12733">
        <ele>721.78</ele>
        <time>2018-02-22T10:05:38Z</time>
      </trkpt>
      <trkpt lat="43.76548" lon="7.12724">
        <ele>719.83</ele>
        <time>2018-02-22T10:05:55Z</time>
      </trkpt>
      <trkpt lat="43.76543" lon="7.12716">
        <ele>719.82</ele>
        <time>2018-02-22T10:06:03Z</time>
      </trkpt>
      <trkpt lat="43.76537" lon="7.12704">
        <ele>719.99</ele>
        <time>2018-02-22T10:06:13Z</time>
      </trkpt>
      <trkpt lat="43.76522" lon="7.12691">
        <ele>718.03</ele>
        <time>2018-02-22T10:06:34Z</time>
      </trkpt>
      <trkpt lat="43.76515" lon="7.12679">
        <ele>716.82</ele>
        <time>2018-02-22T10:06:44Z</time>
      </trkpt>
      <trkpt lat="43.765" lon="7.1264">
        <ele>719.77</ele>
        <time>2018-02-22T10:07:28Z</time>
      </trkpt>
      <trkpt lat="43.76488" lon="7.12614">
        <ele>722.52</ele>
        <time>2018-02-22T10:08:08Z</time>
      </trkpt>
      <trkpt lat="43.76487" lon="7.12612">
        <ele>722.57</ele>
        <time>2018-02-22T10:08:10Z</time>
      </trkpt>
      <trkpt lat="43.7647" lon="7.12599">
        <ele>722.89</ele>
        <time>2018-02-22T10:08:38Z</time>
      </trkpt>
      <trkpt lat="43.76466" lon="7.12596">
        <ele>722.79</ele>
        <time>2018-02-22T10:08:43Z</time>
      </trkpt>
      <trkpt lat="43.76458" lon="7.12583">
        <ele>723.51</ele>
        <time>2018-02-22T10:08:56Z</time>
      </trkpt>
      <trkpt lat="43.76456" lon="7.12573">
        <ele>724.62</ele>
        <time>2018-02-22T10:09:10Z</time>
      </trkpt>
      <trkpt lat="43.76455" lon="7.12571">
        <ele>724.92</ele>
        <time>2018-02-22T10:09:12Z</time>
      </trkpt>
      <trkpt lat="43.76451" lon="7.12564">
        <ele>725.89</ele>
        <time>2018-02-22T10:09:26Z</time>
      </trkpt>
      <trkpt lat="43.76445" lon="7.12551">
        <ele>727.38</ele>
        <time>2018-02-22T10:09:43Z</time>
      </trkpt>
      <trkpt lat="43.76433" lon="7.1254">
        <ele>728.64</ele>
        <time>2018-02-22T10:10:05Z</time>
      </trkpt>
      <trkpt lat="43.76422" lon="7.12535">
        <ele>728.68</ele>
        <time>2018-02-22T10:10:22Z</time>
      </trkpt>
      <trkpt lat="43.7641" lon="7.12532">
        <ele>729.16</ele>
        <time>2018-02-22T10:10:39Z</time>
      </trkpt>
      <trkpt lat="43.76403" lon="7.12525">
        <ele>727.81</ele>
        <time>2018-02-22T10:10:53Z</time>
      </trkpt>
      <trkpt lat="43.764" lon="7.12519">
        <ele>728.35</ele>
        <time>2018-02-22T10:11:11Z</time>
      </trkpt>
      <trkpt lat="43.76392" lon="7.12515">
        <ele>726.69</ele>
        <time>2018-02-22T10:11:25Z</time>
      </trkpt>
      <trkpt lat="43.76387" lon="7.12512">
        <ele>724.59</ele>
        <time>2018-02-22T10:11:38Z</time>
      </trkpt>
      <trkpt lat="43.76379" lon="7.12511">
        <ele>722.13</ele>
        <time>2018-02-22T10:11:55Z</time>
      </trkpt>
      <trkpt lat="43.76367" lon="7.12503">
        <ele>719.95</ele>
        <time>2018-02-22T10:12:12Z</time>
      </trkpt>
      <trkpt lat="43.76356" lon="7.12496">
        <ele>718.28</ele>
        <time>2018-02-22T10:12:27Z</time>
      </trkpt>
      <trkpt lat="43.76347" lon="7.12488">
        <ele>716.21</ele>
        <time>2018-02-22T10:12:46Z</time>
      </trkpt>
      <trkpt lat="43.76345" lon="7.12485">
        <ele>716.08</ele>
        <time>2018-02-22T10:12:52Z</time>
      </trkpt>
      <trkpt lat="43.76337" lon="7.12473">
        <ele>716.1</ele>
        <time>2018-02-22T10:13:09Z</time>
      </trkpt>
      <trkpt lat="43.76332" lon="7.12462">
        <ele>715.78</ele>
        <time>2018-02-22T10:13:25Z</time>
      </trkpt>
      <trkpt lat="43.76321" lon="7.12453">
        <ele>714.98</ele>
        <time>2018-02-22T10:13:47Z</time>
      </trkpt>
      <trkpt lat="43.76317" lon="7.12442">
        <ele>714.43</ele>
        <time>2018-02-22T10:14:00Z</time>
      </trkpt>
      <trkpt lat="43.76318" lon="7.12439">
        <ele>714.53</ele>
        <time>2018-02-22T10:14:05Z</time>
      </trkpt>
      <trkpt lat="43.76314" lon="7.1243">
        <ele>714.11</ele>
        <time>2018-02-22T10:14:18Z</time>
      </trkpt>
      <trkpt lat="43.76313" lon="7.12416">
        <ele>712.73</ele>
        <time>2018-02-22T10:14:39Z</time>
      </trkpt>
      <trkpt lat="43.76307" lon="7.1241">
        <ele>711.63</ele>
        <time>2018-02-22T10:14:49Z</time>
      </trkpt>
      <trkpt lat="43.76318" lon="7.12377">
        <ele>710.07</ele>
        <time>2018-02-22T10:15:27Z</time>
      </trkpt>
      <trkpt lat="43.76308" lon="7.1236">
        <ele>711.32</ele>
        <time>2018-02-22T10:15:43Z</time>
      </trkpt>
      <trkpt lat="43.76305" lon="7.12351">
        <ele>712.11</ele>
        <time>2018-02-22T10:15:56Z</time>
      </trkpt>
      <trkpt lat="43.76293" lon="7.12341">
        <ele>711.23</ele>
        <time>2018-02-22T10:16:22Z</time>
      </trkpt>
      <trkpt lat="43.76292" lon="7.12339">
        <ele>711.02</ele>
        <time>2018-02-22T10:16:38Z</time>
      </trkpt>
      <trkpt lat="43.76295" lon="7.12341">
        <ele>711.08</ele>
        <time>2018-02-22T10:17:31Z</time>
      </trkpt>
      <trkpt lat="43.76292" lon="7.12337">
        <ele>710.44</ele>
        <time>2018-02-22T10:17:57Z</time>
      </trkpt>
      <trkpt lat="43.76291" lon="7.12335">
        <ele>710.55</ele>
        <time>2018-02-22T10:18:32Z</time>
      </trkpt>
      <trkpt lat="43.76288" lon="7.12331">
        <ele>710.55</ele>
        <time>2018-02-22T10:19:07Z</time>
      </trkpt>
      <trkpt lat="43.76289" lon="7.1233">
        <ele>710.55</ele>
        <time>2018-02-22T10:19:45Z</time>
      </trkpt>
      <trkpt lat="43.76287" lon="7.12332">
        <ele>710.55</ele>
        <time>2018-02-22T10:20:21Z</time>
      </trkpt>
      <trkpt lat="43.76287" lon="7.12333">
        <ele>710.55</ele>
        <time>2018-02-22T10:20:42Z</time>
      </trkpt>
      <trkpt lat="43.76286" lon="7.12333">
        <ele>710.55</ele>
        <time>2018-02-22T10:21:11Z</time>
      </trkpt>
      <trkpt lat="43.76286" lon="7.12333">
        <ele>710.55</ele>
        <time>2018-02-22T10:21:44Z</time>
      </trkpt>
      <trkpt lat="43.76286" lon="7.12332">
        <ele>710.55</ele>
        <time>2018-02-22T10:22:35Z</time>
      </trkpt>
      <trkpt lat="43.76285" lon="7.12331">
        <ele>710.55</ele>
        <time>2018-02-22T10:22:58Z</time>
      </trkpt>
      <trkpt lat="43.76283" lon="7.12329">
        <ele>710.55</ele>
        <time>2018-02-22T10:23:31Z</time>
      </trkpt>
      <trkpt lat="43.76281" lon="7.12327">
        <ele>710.55</ele>
        <time>2018-02-22T10:24:10Z</time>
      </trkpt>
      <trkpt lat="43.76285" lon="7.1233">
        <ele>710.55</ele>
        <time>2018-02-22T10:24:48Z</time>
      </trkpt>
      <trkpt lat="43.76284" lon="7.12332">
        <ele>710.55</ele>
        <time>2018-02-22T10:25:30Z</time>
      </trkpt>
      <trkpt lat="43.76283" lon="7.12333">
        <ele>710.55</ele>
        <time>2018-02-22T10:26:00Z</time>
      </trkpt>
      <trkpt lat="43.7628" lon="7.12333">
        <ele>712.59</ele>
        <time>2018-02-22T10:26:18Z</time>
      </trkpt>
      <trkpt lat="43.76283" lon="7.12334">
        <ele>710.29</ele>
        <time>2018-02-22T10:26:42Z</time>
      </trkpt>
      <trkpt lat="43.76287" lon="7.12331">
        <ele>710.36</ele>
        <time>2018-02-22T10:27:22Z</time>
      </trkpt>
      <trkpt lat="43.7629" lon="7.12334">
        <ele>710.27</ele>
        <time>2018-02-22T10:28:07Z</time>
      </trkpt>
      <trkpt lat="43.7629" lon="7.12331">
        <ele>710.76</ele>
        <time>2018-02-22T10:28:35Z</time>
      </trkpt>
      <trkpt lat="43.76285" lon="7.1233">
        <ele>710.76</ele>
        <time>2018-02-22T10:28:56Z</time>
      </trkpt>
      <trkpt lat="43.76283" lon="7.1233">
        <ele>710.76</ele>
        <time>2018-02-22T10:29:22Z</time>
      </trkpt>
      <trkpt lat="43.76293" lon="7.12331">
        <ele>710.76</ele>
        <time>2018-02-22T10:29:41Z</time>
      </trkpt>
      <trkpt lat="43.76291" lon="7.12331">
        <ele>710.76</ele>
        <time>2018-02-22T10:30:10Z</time>
      </trkpt>
      <trkpt lat="43.76291" lon="7.1233">
        <ele>710.76</ele>
        <time>2018-02-22T10:30:38Z</time>
      </trkpt>
      <trkpt lat="43.76291" lon="7.12329">
        <ele>710.76</ele>
        <time>2018-02-22T10:31:02Z</time>
      </trkpt>
      <trkpt lat="43.76294" lon="7.12327">
        <ele>710.76</ele>
        <time>2018-02-22T10:31:08Z</time>
      </trkpt>
      <trkpt lat="43.76295" lon="7.12325">
        <ele>710.76</ele>
        <time>2018-02-22T10:31:10Z</time>
      </trkpt>
      <trkpt lat="43.76288" lon="7.12319">
        <ele>714.32</ele>
        <time>2018-02-22T10:31:22Z</time>
      </trkpt>
      <trkpt lat="43.76289" lon="7.12318">
        <ele>714.35</ele>
        <time>2018-02-22T10:31:23Z</time>
      </trkpt>
      <trkpt lat="43.763" lon="7.12316">
        <ele>715.33</ele>
        <time>2018-02-22T10:31:42Z</time>
      </trkpt>
      <trkpt lat="43.76305" lon="7.12316">
        <ele>716.5</ele>
        <time>2018-02-22T10:31:58Z</time>
      </trkpt>
      <trkpt lat="43.76321" lon="7.12317">
        <ele>719.57</ele>
        <time>2018-02-22T10:32:22Z</time>
      </trkpt>
      <trkpt lat="43.7633" lon="7.12324">
        <ele>721.68</ele>
        <time>2018-02-22T10:32:43Z</time>
      </trkpt>
      <trkpt lat="43.76342" lon="7.12328">
        <ele>723.55</ele>
        <time>2018-02-22T10:33:10Z</time>
      </trkpt>
      <trkpt lat="43.76346" lon="7.12327">
        <ele>724.64</ele>
        <time>2018-02-22T10:33:39Z</time>
      </trkpt>
      <trkpt lat="43.76345" lon="7.12328">
        <ele>724.6</ele>
        <time>2018-02-22T10:34:13Z</time>
      </trkpt>
      <trkpt lat="43.76355" lon="7.12329">
        <ele>724.59</ele>
        <time>2018-02-22T10:34:58Z</time>
      </trkpt>
      <trkpt lat="43.7636" lon="7.1233">
        <ele>724.59</ele>
        <time>2018-02-22T10:35:17Z</time>
      </trkpt>
      <trkpt lat="43.76362" lon="7.12331">
        <ele>724.59</ele>
        <time>2018-02-22T10:35:19Z</time>
      </trkpt>
      <trkpt lat="43.76367" lon="7.12333">
        <ele>726.46</ele>
        <time>2018-02-22T10:35:24Z</time>
      </trkpt>
      <trkpt lat="43.76369" lon="7.12334">
        <ele>727.19</ele>
        <time>2018-02-22T10:35:26Z</time>
      </trkpt>
      <trkpt lat="43.76385" lon="7.12333">
        <ele>729.27</ele>
        <time>2018-02-22T10:35:43Z</time>
      </trkpt>
      <trkpt lat="43.76395" lon="7.12332">
        <ele>730.84</ele>
        <time>2018-02-22T10:35:54Z</time>
      </trkpt>
      <trkpt lat="43.76402" lon="7.12332">
        <ele>731.72</ele>
        <time>2018-02-22T10:36:04Z</time>
      </trkpt>
      <trkpt lat="43.76421" lon="7.12329">
        <ele>732.67</ele>
        <time>2018-02-22T10:36:26Z</time>
      </trkpt>
      <trkpt lat="43.76431" lon="7.12321">
        <ele>732.01</ele>
        <time>2018-02-22T10:36:39Z</time>
      </trkpt>
      <trkpt lat="43.76438" lon="7.12315">
        <ele>728.85</ele>
        <time>2018-02-22T10:36:59Z</time>
      </trkpt>
      <trkpt lat="43.76442" lon="7.12301">
        <ele>725.69</ele>
        <time>2018-02-22T10:37:21Z</time>
      </trkpt>
      <trkpt lat="43.76441" lon="7.12298">
        <ele>725.02</ele>
        <time>2018-02-22T10:37:25Z</time>
      </trkpt>
      <trkpt lat="43.76441" lon="7.12294">
        <ele>724.54</ele>
        <time>2018-02-22T10:37:28Z</time>
      </trkpt>
      <trkpt lat="43.76439" lon="7.12286">
        <ele>723.46</ele>
        <time>2018-02-22T10:37:36Z</time>
      </trkpt>
      <trkpt lat="43.76448" lon="7.12261">
        <ele>721.02</ele>
        <time>2018-02-22T10:37:54Z</time>
      </trkpt>
      <trkpt lat="43.76459" lon="7.12248">
        <ele>720.74</ele>
        <time>2018-02-22T10:38:06Z</time>
      </trkpt>
      <trkpt lat="43.76467" lon="7.12237">
        <ele>721.15</ele>
        <time>2018-02-22T10:38:20Z</time>
      </trkpt>
      <trkpt lat="43.76481" lon="7.12227">
        <ele>722.86</ele>
        <time>2018-02-22T10:38:40Z</time>
      </trkpt>
      <trkpt lat="43.76497" lon="7.12218">
        <ele>724.86</ele>
        <time>2018-02-22T10:39:01Z</time>
      </trkpt>
      <trkpt lat="43.76515" lon="7.12216">
        <ele>726.16</ele>
        <time>2018-02-22T10:39:14Z</time>
      </trkpt>
      <trkpt lat="43.76526" lon="7.1221">
        <ele>727.98</ele>
        <time>2018-02-22T10:39:32Z</time>
      </trkpt>
      <trkpt lat="43.76539" lon="7.12207">
        <ele>728.57</ele>
        <time>2018-02-22T10:39:49Z</time>
      </trkpt>
      <trkpt lat="43.76558" lon="7.12208">
        <ele>729.64</ele>
        <time>2018-02-22T10:40:03Z</time>
      </trkpt>
      <trkpt lat="43.76566" lon="7.12209">
        <ele>730.73</ele>
        <time>2018-02-22T10:40:18Z</time>
      </trkpt>
      <trkpt lat="43.76572" lon="7.12207">
        <ele>731.61</ele>
        <time>2018-02-22T10:40:31Z</time>
      </trkpt>
      <trkpt lat="43.76576" lon="7.12207">
        <ele>731.62</ele>
        <time>2018-02-22T10:40:35Z</time>
      </trkpt>
      <trkpt lat="43.7659" lon="7.12209">
        <ele>732.79</ele>
        <time>2018-02-22T10:40:49Z</time>
      </trkpt>
      <trkpt lat="43.766" lon="7.12209">
        <ele>733.17</ele>
        <time>2018-02-22T10:41:02Z</time>
      </trkpt>
      <trkpt lat="43.76613" lon="7.12212">
        <ele>734.59</ele>
        <time>2018-02-22T10:41:15Z</time>
      </trkpt>
      <trkpt lat="43.76619" lon="7.12212">
        <ele>735.56</ele>
        <time>2018-02-22T10:41:21Z</time>
      </trkpt>
      <trkpt lat="43.76631" lon="7.12214">
        <ele>737.09</ele>
        <time>2018-02-22T10:41:36Z</time>
      </trkpt>
      <trkpt lat="43.76637" lon="7.12215">
        <ele>738.63</ele>
        <time>2018-02-22T10:41:51Z</time>
      </trkpt>
      <trkpt lat="43.76643" lon="7.12218">
        <ele>741.27</ele>
        <time>2018-02-22T10:42:14Z</time>
      </trkpt>
      <trkpt lat="43.76662" lon="7.12215">
        <ele>742.13</ele>
        <time>2018-02-22T10:42:35Z</time>
      </trkpt>
      <trkpt lat="43.76676" lon="7.1222">
        <ele>742.19</ele>
        <time>2018-02-22T10:42:46Z</time>
      </trkpt>
      <trkpt lat="43.76688" lon="7.12231">
        <ele>742.53</ele>
        <time>2018-02-22T10:43:04Z</time>
      </trkpt>
      <trkpt lat="43.76701" lon="7.12237">
        <ele>743.64</ele>
        <time>2018-02-22T10:43:20Z</time>
      </trkpt>
      <trkpt lat="43.76712" lon="7.12243">
        <ele>745.04</ele>
        <time>2018-02-22T10:43:34Z</time>
      </trkpt>
      <trkpt lat="43.7672" lon="7.12245">
        <ele>745.71</ele>
        <time>2018-02-22T10:43:45Z</time>
      </trkpt>
      <trkpt lat="43.76729" lon="7.12246">
        <ele>746.39</ele>
        <time>2018-02-22T10:44:02Z</time>
      </trkpt>
      <trkpt lat="43.76742" lon="7.12227">
        <ele>747.72</ele>
        <time>2018-02-22T10:44:24Z</time>
      </trkpt>
      <trkpt lat="43.76753" lon="7.12216">
        <ele>749.19</ele>
        <time>2018-02-22T10:44:42Z</time>
      </trkpt>
      <trkpt lat="43.76767" lon="7.12205">
        <ele>750.16</ele>
        <time>2018-02-22T10:45:04Z</time>
      </trkpt>
      <trkpt lat="43.76775" lon="7.122">
        <ele>751.43</ele>
        <time>2018-02-22T10:45:25Z</time>
      </trkpt>
      <trkpt lat="43.76793" lon="7.12195">
        <ele>751.95</ele>
        <time>2018-02-22T10:45:38Z</time>
      </trkpt>
      <trkpt lat="43.76801" lon="7.12189">
        <ele>753.43</ele>
        <time>2018-02-22T10:45:57Z</time>
      </trkpt>
      <trkpt lat="43.76805" lon="7.1218">
        <ele>753.75</ele>
        <time>2018-02-22T10:46:03Z</time>
      </trkpt>
      <trkpt lat="43.76812" lon="7.12175">
        <ele>754.62</ele>
        <time>2018-02-22T10:46:17Z</time>
      </trkpt>
      <trkpt lat="43.76821" lon="7.12177">
        <ele>756.43</ele>
        <time>2018-02-22T10:46:33Z</time>
      </trkpt>
      <trkpt lat="43.76834" lon="7.12176">
        <ele>757.62</ele>
        <time>2018-02-22T10:46:53Z</time>
      </trkpt>
      <trkpt lat="43.76849" lon="7.12182">
        <ele>759.32</ele>
        <time>2018-02-22T10:47:12Z</time>
      </trkpt>
      <trkpt lat="43.76859" lon="7.12185">
        <ele>760.47</ele>
        <time>2018-02-22T10:47:28Z</time>
      </trkpt>
      <trkpt lat="43.76873" lon="7.12183">
        <ele>761.84</ele>
        <time>2018-02-22T10:47:45Z</time>
      </trkpt>
      <trkpt lat="43.76878" lon="7.12178">
        <ele>763.03</ele>
        <time>2018-02-22T10:48:02Z</time>
      </trkpt>
      <trkpt lat="43.76887" lon="7.12173">
        <ele>764.41</ele>
        <time>2018-02-22T10:48:26Z</time>
      </trkpt>
      <trkpt lat="43.76891" lon="7.12173">
        <ele>764.86</ele>
        <time>2018-02-22T10:48:30Z</time>
      </trkpt>
      <trkpt lat="43.76912" lon="7.12171">
        <ele>766.56</ele>
        <time>2018-02-22T10:48:53Z</time>
      </trkpt>
      <trkpt lat="43.76916" lon="7.12171">
        <ele>766.73</ele>
        <time>2018-02-22T10:48:55Z</time>
      </trkpt>
      <trkpt lat="43.76922" lon="7.12162">
        <ele>768.05</ele>
        <time>2018-02-22T10:49:12Z</time>
      </trkpt>
      <trkpt lat="43.76924" lon="7.12154">
        <ele>769.78</ele>
        <time>2018-02-22T10:49:29Z</time>
      </trkpt>
      <trkpt lat="43.76927" lon="7.12142">
        <ele>772.29</ele>
        <time>2018-02-22T10:49:51Z</time>
      </trkpt>
      <trkpt lat="43.76933" lon="7.12131">
        <ele>774.88</ele>
        <time>2018-02-22T10:50:11Z</time>
      </trkpt>
      <trkpt lat="43.76933" lon="7.1212">
        <ele>776.49</ele>
        <time>2018-02-22T10:50:29Z</time>
      </trkpt>
      <trkpt lat="43.76938" lon="7.12107">
        <ele>777.61</ele>
        <time>2018-02-22T10:50:49Z</time>
      </trkpt>
      <trkpt lat="43.7694" lon="7.12101">
        <ele>777.6</ele>
        <time>2018-02-22T10:51:00Z</time>
      </trkpt>
      <trkpt lat="43.76951" lon="7.12089">
        <ele>778.2</ele>
        <time>2018-02-22T10:51:25Z</time>
      </trkpt>
      <trkpt lat="43.76964" lon="7.12076">
        <ele>778.21</ele>
        <time>2018-02-22T10:51:48Z</time>
      </trkpt>
      <trkpt lat="43.76981" lon="7.12066">
        <ele>778.45</ele>
        <time>2018-02-22T10:52:12Z</time>
      </trkpt>
      <trkpt lat="43.76982" lon="7.12065">
        <ele>778.52</ele>
        <time>2018-02-22T10:52:15Z</time>
      </trkpt>
      <trkpt lat="43.76995" lon="7.12065">
        <ele>778.59</ele>
        <time>2018-02-22T10:52:36Z</time>
      </trkpt>
      <trkpt lat="43.77013" lon="7.1207">
        <ele>779.19</ele>
        <time>2018-02-22T10:52:58Z</time>
      </trkpt>
      <trkpt lat="43.77027" lon="7.12074">
        <ele>778.81</ele>
        <time>2018-02-22T10:53:22Z</time>
      </trkpt>
      <trkpt lat="43.77045" lon="7.12077">
        <ele>778.81</ele>
        <time>2018-02-22T10:53:47Z</time>
      </trkpt>
      <trkpt lat="43.77052" lon="7.12076">
        <ele>781.33</ele>
        <time>2018-02-22T10:54:06Z</time>
      </trkpt>
      <trkpt lat="43.77068" lon="7.12071">
        <ele>780.77</ele>
        <time>2018-02-22T10:54:29Z</time>
      </trkpt>
      <trkpt lat="43.77086" lon="7.12068">
        <ele>779.71</ele>
        <time>2018-02-22T10:54:49Z</time>
      </trkpt>
      <trkpt lat="43.77097" lon="7.12064">
        <ele>777.97</ele>
        <time>2018-02-22T10:55:06Z</time>
      </trkpt>
      <trkpt lat="43.77114" lon="7.12057">
        <ele>776.9</ele>
        <time>2018-02-22T10:55:26Z</time>
      </trkpt>
      <trkpt lat="43.77133" lon="7.12044">
        <ele>775.71</ele>
        <time>2018-02-22T10:55:45Z</time>
      </trkpt>
      <trkpt lat="43.77154" lon="7.12037">
        <ele>774.55</ele>
        <time>2018-02-22T10:56:04Z</time>
      </trkpt>
      <trkpt lat="43.7716" lon="7.12036">
        <ele>774.12</ele>
        <time>2018-02-22T10:56:08Z</time>
      </trkpt>
      <trkpt lat="43.77171" lon="7.12024">
        <ele>773.49</ele>
        <time>2018-02-22T10:56:25Z</time>
      </trkpt>
      <trkpt lat="43.77189" lon="7.1202">
        <ele>771.64</ele>
        <time>2018-02-22T10:56:44Z</time>
      </trkpt>
      <trkpt lat="43.77199" lon="7.12017">
        <ele>769.54</ele>
        <time>2018-02-22T10:57:04Z</time>
      </trkpt>
      <trkpt lat="43.77224" lon="7.12013">
        <ele>766.64</ele>
        <time>2018-02-22T10:57:26Z</time>
      </trkpt>
      <trkpt lat="43.77231" lon="7.12004">
        <ele>764.65</ele>
        <time>2018-02-22T10:57:46Z</time>
      </trkpt>
      <trkpt lat="43.7725" lon="7.12002">
        <ele>762.22</ele>
        <time>2018-02-22T10:58:04Z</time>
      </trkpt>
      <trkpt lat="43.77266" lon="7.11993">
        <ele>759.3</ele>
        <time>2018-02-22T10:58:23Z</time>
      </trkpt>
      <trkpt lat="43.77277" lon="7.11974">
        <ele>757.18</ele>
        <time>2018-02-22T10:58:41Z</time>
      </trkpt>
      <trkpt lat="43.77294" lon="7.11965">
        <ele>754.97</ele>
        <time>2018-02-22T10:59:01Z</time>
      </trkpt>
      <trkpt lat="43.77312" lon="7.11957">
        <ele>753.19</ele>
        <time>2018-02-22T10:59:21Z</time>
      </trkpt>
      <trkpt lat="43.77319" lon="7.11949">
        <ele>750.62</ele>
        <time>2018-02-22T10:59:42Z</time>
      </trkpt>
      <trkpt lat="43.77322" lon="7.11946">
        <ele>749.29</ele>
        <time>2018-02-22T10:59:50Z</time>
      </trkpt>
      <trkpt lat="43.77324" lon="7.11944">
        <ele>748.56</ele>
        <time>2018-02-22T10:59:55Z</time>
      </trkpt>
      <trkpt lat="43.77337" lon="7.11929">
        <ele>745.47</ele>
        <time>2018-02-22T11:00:22Z</time>
      </trkpt>
      <trkpt lat="43.77348" lon="7.1192">
        <ele>742.95</ele>
        <time>2018-02-22T11:00:46Z</time>
      </trkpt>
      <trkpt lat="43.77352" lon="7.11915">
        <ele>741.46</ele>
        <time>2018-02-22T11:00:58Z</time>
      </trkpt>
      <trkpt lat="43.77358" lon="7.11915">
        <ele>740.23</ele>
        <time>2018-02-22T11:01:08Z</time>
      </trkpt>
      <trkpt lat="43.77372" lon="7.11913">
        <ele>738.14</ele>
        <time>2018-02-22T11:01:30Z</time>
      </trkpt>
      <trkpt lat="43.77379" lon="7.11912">
        <ele>736.47</ele>
        <time>2018-02-22T11:01:47Z</time>
      </trkpt>
      <trkpt lat="43.77401" lon="7.11906">
        <ele>733.36</ele>
        <time>2018-02-22T11:02:13Z</time>
      </trkpt>
      <trkpt lat="43.77407" lon="7.11902">
        <ele>731.99</ele>
        <time>2018-02-22T11:02:26Z</time>
      </trkpt>
      <trkpt lat="43.77412" lon="7.11899">
        <ele>730.39</ele>
        <time>2018-02-22T11:02:44Z</time>
      </trkpt>
      <trkpt lat="43.77419" lon="7.11895">
        <ele>729.38</ele>
        <time>2018-02-22T11:02:55Z</time>
      </trkpt>
      <trkpt lat="43.77442" lon="7.1188">
        <ele>728.87</ele>
        <time>2018-02-22T11:03:13Z</time>
      </trkpt>
      <trkpt lat="43.77454" lon="7.11875">
        <ele>729.72</ele>
        <time>2018-02-22T11:03:37Z</time>
      </trkpt>
      <trkpt lat="43.77467" lon="7.11868">
        <ele>729.14</ele>
        <time>2018-02-22T11:04:02Z</time>
      </trkpt>
      <trkpt lat="43.77469" lon="7.11868">
        <ele>729.1</ele>
        <time>2018-02-22T11:04:03Z</time>
      </trkpt>
      <trkpt lat="43.77472" lon="7.11868">
        <ele>729.02</ele>
        <time>2018-02-22T11:04:08Z</time>
      </trkpt>
      <trkpt lat="43.7749" lon="7.11877">
        <ele>729.39</ele>
        <time>2018-02-22T11:04:30Z</time>
      </trkpt>
      <trkpt lat="43.77509" lon="7.11881">
        <ele>729.39</ele>
        <time>2018-02-22T11:04:48Z</time>
      </trkpt>
      <trkpt lat="43.77517" lon="7.11887">
        <ele>729.39</ele>
        <time>2018-02-22T11:05:07Z</time>
      </trkpt>
      <trkpt lat="43.77535" lon="7.11893">
        <ele>729.39</ele>
        <time>2018-02-22T11:05:28Z</time>
      </trkpt>
      <trkpt lat="43.7755" lon="7.11894">
        <ele>728.96</ele>
        <time>2018-02-22T11:05:48Z</time>
      </trkpt>
      <trkpt lat="43.77565" lon="7.11893">
        <ele>730.98</ele>
        <time>2018-02-22T11:06:08Z</time>
      </trkpt>
      <trkpt lat="43.77582" lon="7.11887">
        <ele>732.78</ele>
        <time>2018-02-22T11:06:29Z</time>
      </trkpt>
      <trkpt lat="43.77596" lon="7.11877">
        <ele>732.35</ele>
        <time>2018-02-22T11:06:52Z</time>
      </trkpt>
      <trkpt lat="43.7761" lon="7.11872">
        <ele>731.61</ele>
        <time>2018-02-22T11:07:13Z</time>
      </trkpt>
      <trkpt lat="43.77628" lon="7.11877">
        <ele>732.82</ele>
        <time>2018-02-22T11:07:37Z</time>
      </trkpt>
      <trkpt lat="43.77647" lon="7.11869">
        <ele>733.32</ele>
        <time>2018-02-22T11:07:56Z</time>
      </trkpt>
      <trkpt lat="43.77661" lon="7.11861">
        <ele>733.01</ele>
        <time>2018-02-22T11:08:17Z</time>
      </trkpt>
      <trkpt lat="43.77676" lon="7.11856">
        <ele>733.01</ele>
        <time>2018-02-22T11:08:37Z</time>
      </trkpt>
      <trkpt lat="43.7768" lon="7.11845">
        <ele>733.01</ele>
        <time>2018-02-22T11:09:01Z</time>
      </trkpt>
      <trkpt lat="43.77687" lon="7.11828">
        <ele>733.01</ele>
        <time>2018-02-22T11:09:26Z</time>
      </trkpt>
      <trkpt lat="43.77697" lon="7.11811">
        <ele>733.01</ele>
        <time>2018-02-22T11:09:47Z</time>
      </trkpt>
      <trkpt lat="43.77707" lon="7.1179">
        <ele>733.01</ele>
        <time>2018-02-22T11:10:10Z</time>
      </trkpt>
      <trkpt lat="43.77707" lon="7.11788">
        <ele>738.41</ele>
        <time>2018-02-22T11:10:11Z</time>
      </trkpt>
      <trkpt lat="43.77708" lon="7.11787">
        <ele>738.09</ele>
        <time>2018-02-22T11:10:12Z</time>
      </trkpt>
      <trkpt lat="43.77719" lon="7.11767">
        <ele>738.35</ele>
        <time>2018-02-22T11:10:33Z</time>
      </trkpt>
      <trkpt lat="43.77721" lon="7.11763">
        <ele>738.25</ele>
        <time>2018-02-22T11:10:37Z</time>
      </trkpt>
      <trkpt lat="43.77736" lon="7.11745">
        <ele>738.39</ele>
        <time>2018-02-22T11:10:58Z</time>
      </trkpt>
      <trkpt lat="43.77756" lon="7.11727">
        <ele>738.41</ele>
        <time>2018-02-22T11:11:20Z</time>
      </trkpt>
      <trkpt lat="43.77772" lon="7.11718">
        <ele>738.3</ele>
        <time>2018-02-22T11:11:39Z</time>
      </trkpt>
      <trkpt lat="43.77797" lon="7.11704">
        <ele>737.57</ele>
        <time>2018-02-22T11:11:59Z</time>
      </trkpt>
      <trkpt lat="43.77806" lon="7.11701">
        <ele>736.95</ele>
        <time>2018-02-22T11:12:10Z</time>
      </trkpt>
      <trkpt lat="43.77811" lon="7.117">
        <ele>736.76</ele>
        <time>2018-02-22T11:12:36Z</time>
      </trkpt>
      <trkpt lat="43.77814" lon="7.11701">
        <ele>736.78</ele>
        <time>2018-02-22T11:13:06Z</time>
      </trkpt>
      <trkpt lat="43.77814" lon="7.11701">
        <ele>736.51</ele>
        <time>2018-02-22T11:13:34Z</time>
      </trkpt>
      <trkpt lat="43.77816" lon="7.11699">
        <ele>736.51</ele>
        <time>2018-02-22T11:14:11Z</time>
      </trkpt>
      <trkpt lat="43.77814" lon="7.11698">
        <ele>736.51</ele>
        <time>2018-02-22T11:14:33Z</time>
      </trkpt>
      <trkpt lat="43.77816" lon="7.117">
        <ele>736.51</ele>
        <time>2018-02-22T11:15:20Z</time>
      </trkpt>
      <trkpt lat="43.77815" lon="7.11702">
        <ele>736.51</ele>
        <time>2018-02-22T11:16:11Z</time>
      </trkpt>
      <trkpt lat="43.77815" lon="7.117">
        <ele>736.51</ele>
        <time>2018-02-22T11:16:34Z</time>
      </trkpt>
      <trkpt lat="43.77819" lon="7.11702">
        <ele>736.51</ele>
        <time>2018-02-22T11:17:00Z</time>
      </trkpt>
      <trkpt lat="43.77821" lon="7.11711">
        <ele>736.51</ele>
        <time>2018-02-22T11:17:18Z</time>
      </trkpt>
      <trkpt lat="43.77821" lon="7.11712">
        <ele>736.51</ele>
        <time>2018-02-22T11:17:20Z</time>
      </trkpt>
      <trkpt lat="43.77824" lon="7.1173">
        <ele>738.18</ele>
        <time>2018-02-22T11:17:39Z</time>
      </trkpt>
      <trkpt lat="43.77836" lon="7.11756">
        <ele>738.76</ele>
        <time>2018-02-22T11:17:56Z</time>
      </trkpt>
      <trkpt lat="43.77851" lon="7.1177">
        <ele>740.5</ele>
        <time>2018-02-22T11:18:16Z</time>
      </trkpt>
      <trkpt lat="43.7786" lon="7.11785">
        <ele>742.01</ele>
        <time>2018-02-22T11:18:30Z</time>
      </trkpt>
      <trkpt lat="43.77879" lon="7.11804">
        <ele>743.61</ele>
        <time>2018-02-22T11:18:53Z</time>
      </trkpt>
      <trkpt lat="43.77885" lon="7.11817">
        <ele>744.55</ele>
        <time>2018-02-22T11:19:04Z</time>
      </trkpt>
      <trkpt lat="43.77894" lon="7.11835">
        <ele>745.06</ele>
        <time>2018-02-22T11:19:26Z</time>
      </trkpt>
      <trkpt lat="43.77912" lon="7.11853">
        <ele>744.77</ele>
        <time>2018-02-22T11:19:42Z</time>
      </trkpt>
      <trkpt lat="43.77926" lon="7.11867">
        <ele>745.77</ele>
        <time>2018-02-22T11:19:57Z</time>
      </trkpt>
      <trkpt lat="43.77935" lon="7.11874">
        <ele>745.82</ele>
        <time>2018-02-22T11:20:14Z</time>
      </trkpt>
      <trkpt lat="43.77947" lon="7.11883">
        <ele>746.78</ele>
        <time>2018-02-22T11:20:35Z</time>
      </trkpt>
      <trkpt lat="43.7796" lon="7.11888">
        <ele>747.76</ele>
        <time>2018-02-22T11:20:48Z</time>
      </trkpt>
      <trkpt lat="43.77971" lon="7.11891">
        <ele>748.41</ele>
        <time>2018-02-22T11:21:05Z</time>
      </trkpt>
      <trkpt lat="43.77981" lon="7.11901">
        <ele>749.98</ele>
        <time>2018-02-22T11:21:25Z</time>
      </trkpt>
      <trkpt lat="43.77991" lon="7.11911">
        <ele>750.82</ele>
        <time>2018-02-22T11:21:46Z</time>
      </trkpt>
      <trkpt lat="43.7801" lon="7.11914">
        <ele>751.14</ele>
        <time>2018-02-22T11:22:02Z</time>
      </trkpt>
      <trkpt lat="43.78016" lon="7.11919">
        <ele>753</ele>
        <time>2018-02-22T11:22:22Z</time>
      </trkpt>
      <trkpt lat="43.7803" lon="7.11926">
        <ele>754.74</ele>
        <time>2018-02-22T11:22:48Z</time>
      </trkpt>
      <trkpt lat="43.78044" lon="7.11934">
        <ele>757.3</ele>
        <time>2018-02-22T11:23:10Z</time>
      </trkpt>
      <trkpt lat="43.78052" lon="7.11941">
        <ele>759.23</ele>
        <time>2018-02-22T11:23:28Z</time>
      </trkpt>
      <trkpt lat="43.78058" lon="7.11948">
        <ele>761.24</ele>
        <time>2018-02-22T11:23:45Z</time>
      </trkpt>
      <trkpt lat="43.78075" lon="7.11954">
        <ele>762.62</ele>
        <time>2018-02-22T11:24:03Z</time>
      </trkpt>
      <trkpt lat="43.7808" lon="7.1196">
        <ele>763.94</ele>
        <time>2018-02-22T11:24:16Z</time>
      </trkpt>
      <trkpt lat="43.78078" lon="7.11964">
        <ele>764.35</ele>
        <time>2018-02-22T11:24:40Z</time>
      </trkpt>
      <trkpt lat="43.78078" lon="7.11961">
        <ele>764.22</ele>
        <time>2018-02-22T11:25:11Z</time>
      </trkpt>
      <trkpt lat="43.7808" lon="7.11959">
        <ele>764.26</ele>
        <time>2018-02-22T11:25:39Z</time>
      </trkpt>
      <trkpt lat="43.78078" lon="7.11962">
        <ele>764.34</ele>
        <time>2018-02-22T11:26:07Z</time>
      </trkpt>
      <trkpt lat="43.78082" lon="7.11968">
        <ele>764.59</ele>
        <time>2018-02-22T11:26:13Z</time>
      </trkpt>
      <trkpt lat="43.78086" lon="7.11978">
        <ele>768</ele>
        <time>2018-02-22T11:26:30Z</time>
      </trkpt>
      <trkpt lat="43.78093" lon="7.11992">
        <ele>771.06</ele>
        <time>2018-02-22T11:26:54Z</time>
      </trkpt>
      <trkpt lat="43.78102" lon="7.12003">
        <ele>774.19</ele>
        <time>2018-02-22T11:27:19Z</time>
      </trkpt>
      <trkpt lat="43.78106" lon="7.1201">
        <ele>774.86</ele>
        <time>2018-02-22T11:27:50Z</time>
      </trkpt>
      <trkpt lat="43.78114" lon="7.12014">
        <ele>777.16</ele>
        <time>2018-02-22T11:28:05Z</time>
      </trkpt>
      <trkpt lat="43.78122" lon="7.12023">
        <ele>780.27</ele>
        <time>2018-02-22T11:28:26Z</time>
      </trkpt>
      <trkpt lat="43.78135" lon="7.12045">
        <ele>783.3</ele>
        <time>2018-02-22T11:28:47Z</time>
      </trkpt>
      <trkpt lat="43.78138" lon="7.12066">
        <ele>785.27</ele>
        <time>2018-02-22T11:29:07Z</time>
      </trkpt>
      <trkpt lat="43.78133" lon="7.12092">
        <ele>787.94</ele>
        <time>2018-02-22T11:29:30Z</time>
      </trkpt>
      <trkpt lat="43.7813" lon="7.12111">
        <ele>790.47</ele>
        <time>2018-02-22T11:29:52Z</time>
      </trkpt>
      <trkpt lat="43.78128" lon="7.12122">
        <ele>793.58</ele>
        <time>2018-02-22T11:30:13Z</time>
      </trkpt>
      <trkpt lat="43.78123" lon="7.12128">
        <ele>796.58</ele>
        <time>2018-02-22T11:30:32Z</time>
      </trkpt>
      <trkpt lat="43.78118" lon="7.12134">
        <ele>798.4</ele>
        <time>2018-02-22T11:30:47Z</time>
      </trkpt>
      <trkpt lat="43.7811" lon="7.12143">
        <ele>800.36</ele>
        <time>2018-02-22T11:31:15Z</time>
      </trkpt>
      <trkpt lat="43.78113" lon="7.12149">
        <ele>800.56</ele>
        <time>2018-02-22T11:31:46Z</time>
      </trkpt>
      <trkpt lat="43.78112" lon="7.12157">
        <ele>801.11</ele>
        <time>2018-02-22T11:31:57Z</time>
      </trkpt>
      <trkpt lat="43.78111" lon="7.12167">
        <ele>802.92</ele>
        <time>2018-02-22T11:32:13Z</time>
      </trkpt>
      <trkpt lat="43.7811" lon="7.12177">
        <ele>803.71</ele>
        <time>2018-02-22T11:32:25Z</time>
      </trkpt>
      <trkpt lat="43.78107" lon="7.12193">
        <ele>806.05</ele>
        <time>2018-02-22T11:32:45Z</time>
      </trkpt>
      <trkpt lat="43.78108" lon="7.12199">
        <ele>806.47</ele>
        <time>2018-02-22T11:32:52Z</time>
      </trkpt>
      <trkpt lat="43.78109" lon="7.12214">
        <ele>807.93</ele>
        <time>2018-02-22T11:33:12Z</time>
      </trkpt>
      <trkpt lat="43.78108" lon="7.12222">
        <ele>809.34</ele>
        <time>2018-02-22T11:33:31Z</time>
      </trkpt>
      <trkpt lat="43.7811" lon="7.12234">
        <ele>811.88</ele>
        <time>2018-02-22T11:33:56Z</time>
      </trkpt>
      <trkpt lat="43.78106" lon="7.12243">
        <ele>814.49</ele>
        <time>2018-02-22T11:34:19Z</time>
      </trkpt>
      <trkpt lat="43.78102" lon="7.12253">
        <ele>817.07</ele>
        <time>2018-02-22T11:34:41Z</time>
      </trkpt>
      <trkpt lat="43.78094" lon="7.12264">
        <ele>819.51</ele>
        <time>2018-02-22T11:35:03Z</time>
      </trkpt>
      <trkpt lat="43.78088" lon="7.12276">
        <ele>821.91</ele>
        <time>2018-02-22T11:35:26Z</time>
      </trkpt>
      <trkpt lat="43.78085" lon="7.12291">
        <ele>824.2</ele>
        <time>2018-02-22T11:35:48Z</time>
      </trkpt>
      <trkpt lat="43.78079" lon="7.12303">
        <ele>827.03</ele>
        <time>2018-02-22T11:36:11Z</time>
      </trkpt>
      <trkpt lat="43.78074" lon="7.12312">
        <ele>829.4</ele>
        <time>2018-02-22T11:36:33Z</time>
      </trkpt>
      <trkpt lat="43.78069" lon="7.12332">
        <ele>831.64</ele>
        <time>2018-02-22T11:36:55Z</time>
      </trkpt>
      <trkpt lat="43.78066" lon="7.12342">
        <ele>832.77</ele>
        <time>2018-02-22T11:37:16Z</time>
      </trkpt>
      <trkpt lat="43.78064" lon="7.12357">
        <ele>835.15</ele>
        <time>2018-02-22T11:37:38Z</time>
      </trkpt>
      <trkpt lat="43.7806" lon="7.12367">
        <ele>838.22</ele>
        <time>2018-02-22T11:38:02Z</time>
      </trkpt>
      <trkpt lat="43.78052" lon="7.12377">
        <ele>840.74</ele>
        <time>2018-02-22T11:38:25Z</time>
      </trkpt>
      <trkpt lat="43.78041" lon="7.12394">
        <ele>843.24</ele>
        <time>2018-02-22T11:38:50Z</time>
      </trkpt>
      <trkpt lat="43.78041" lon="7.1241">
        <ele>845.02</ele>
        <time>2018-02-22T11:39:11Z</time>
      </trkpt>
      <trkpt lat="43.7804" lon="7.12432">
        <ele>846.92</ele>
        <time>2018-02-22T11:39:37Z</time>
      </trkpt>
      <trkpt lat="43.78034" lon="7.1245">
        <ele>848.42</ele>
        <time>2018-02-22T11:39:57Z</time>
      </trkpt>
      <trkpt lat="43.78033" lon="7.12461">
        <ele>850.04</ele>
        <time>2018-02-22T11:40:17Z</time>
      </trkpt>
      <trkpt lat="43.78031" lon="7.1248">
        <ele>851.53</ele>
        <time>2018-02-22T11:40:42Z</time>
      </trkpt>
      <trkpt lat="43.78033" lon="7.12486">
        <ele>852.69</ele>
        <time>2018-02-22T11:41:03Z</time>
      </trkpt>
      <trkpt lat="43.78032" lon="7.12506">
        <ele>854.74</ele>
        <time>2018-02-22T11:41:24Z</time>
      </trkpt>
      <trkpt lat="43.78032" lon="7.12513">
        <ele>856.52</ele>
        <time>2018-02-22T11:41:47Z</time>
      </trkpt>
      <trkpt lat="43.78031" lon="7.12528">
        <ele>857.7</ele>
        <time>2018-02-22T11:42:07Z</time>
      </trkpt>
      <trkpt lat="43.78028" lon="7.12546">
        <ele>860.06</ele>
        <time>2018-02-22T11:42:28Z</time>
      </trkpt>
      <trkpt lat="43.78022" lon="7.12565">
        <ele>862.07</ele>
        <time>2018-02-22T11:42:49Z</time>
      </trkpt>
      <trkpt lat="43.78018" lon="7.12576">
        <ele>864.1</ele>
        <time>2018-02-22T11:43:14Z</time>
      </trkpt>
      <trkpt lat="43.78012" lon="7.12598">
        <ele>866.2</ele>
        <time>2018-02-22T11:43:34Z</time>
      </trkpt>
      <trkpt lat="43.78012" lon="7.12616">
        <ele>868.44</ele>
        <time>2018-02-22T11:43:56Z</time>
      </trkpt>
      <trkpt lat="43.78004" lon="7.12639">
        <ele>869.79</ele>
        <time>2018-02-22T11:44:21Z</time>
      </trkpt>
      <trkpt lat="43.77991" lon="7.12641">
        <ele>870.43</ele>
        <time>2018-02-22T11:44:44Z</time>
      </trkpt>
      <trkpt lat="43.77993" lon="7.12639">
        <ele>869.96</ele>
        <time>2018-02-22T11:45:08Z</time>
      </trkpt>
      <trkpt lat="43.77995" lon="7.12634">
        <ele>870.34</ele>
        <time>2018-02-22T11:45:34Z</time>
      </trkpt>
      <trkpt lat="43.77994" lon="7.12626">
        <ele>869.18</ele>
        <time>2018-02-22T11:45:54Z</time>
      </trkpt>
      <trkpt lat="43.77996" lon="7.1263">
        <ele>869.88</ele>
        <time>2018-02-22T11:46:17Z</time>
      </trkpt>
      <trkpt lat="43.77995" lon="7.1263">
        <ele>870.02</ele>
        <time>2018-02-22T11:46:42Z</time>
      </trkpt>
      <trkpt lat="43.77993" lon="7.12632">
        <ele>869.92</ele>
        <time>2018-02-22T11:47:16Z</time>
      </trkpt>
      <trkpt lat="43.77993" lon="7.1263">
        <ele>870.18</ele>
        <time>2018-02-22T11:47:41Z</time>
      </trkpt>
      <trkpt lat="43.77993" lon="7.12632">
        <ele>869.96</ele>
        <time>2018-02-22T11:48:09Z</time>
      </trkpt>
      <trkpt lat="43.77994" lon="7.1263">
        <ele>869.96</ele>
        <time>2018-02-22T11:48:36Z</time>
      </trkpt>
      <trkpt lat="43.77997" lon="7.1263">
        <ele>869.96</ele>
        <time>2018-02-22T11:49:07Z</time>
      </trkpt>
      <trkpt lat="43.77997" lon="7.1263">
        <ele>869.96</ele>
        <time>2018-02-22T11:49:49Z</time>
      </trkpt>
      <trkpt lat="43.77996" lon="7.12628">
        <ele>869.96</ele>
        <time>2018-02-22T11:51:47Z</time>
      </trkpt>
      <trkpt lat="43.77997" lon="7.12629">
        <ele>869.96</ele>
        <time>2018-02-22T11:54:04Z</time>
      </trkpt>
      <trkpt lat="43.77996" lon="7.12632">
        <ele>869.96</ele>
        <time>2018-02-22T11:55:00Z</time>
      </trkpt>
      <trkpt lat="43.77996" lon="7.12633">
        <ele>869.96</ele>
        <time>2018-02-22T11:55:39Z</time>
      </trkpt>
      <trkpt lat="43.77997" lon="7.12632">
        <ele>869.96</ele>
        <time>2018-02-22T11:59:11Z</time>
      </trkpt>
      <trkpt lat="43.77999" lon="7.12631">
        <ele>869.96</ele>
        <time>2018-02-22T11:59:51Z</time>
      </trkpt>
      <trkpt lat="43.78" lon="7.1263">
        <ele>869.96</ele>
        <time>2018-02-22T12:00:24Z</time>
      </trkpt>
      <trkpt lat="43.78002" lon="7.12632">
        <ele>869.96</ele>
        <time>2018-02-22T12:01:03Z</time>
      </trkpt>
      <trkpt lat="43.78002" lon="7.12633">
        <ele>869.96</ele>
        <time>2018-02-22T12:01:42Z</time>
      </trkpt>
      <trkpt lat="43.78" lon="7.12633">
        <ele>869.96</ele>
        <time>2018-02-22T12:02:38Z</time>
      </trkpt>
      <trkpt lat="43.77998" lon="7.12631">
        <ele>869.96</ele>
        <time>2018-02-22T12:03:55Z</time>
      </trkpt>
      <trkpt lat="43.77994" lon="7.12633">
        <ele>869.96</ele>
        <time>2018-02-22T12:04:45Z</time>
      </trkpt>
      <trkpt lat="43.77993" lon="7.12631">
        <ele>869.96</ele>
        <time>2018-02-22T12:05:41Z</time>
      </trkpt>
      <trkpt lat="43.77996" lon="7.12634">
        <ele>869.96</ele>
        <time>2018-02-22T12:08:28Z</time>
      </trkpt>
      <trkpt lat="43.77997" lon="7.12634">
        <ele>869.96</ele>
        <time>2018-02-22T12:11:00Z</time>
      </trkpt>
      <trkpt lat="43.77996" lon="7.12635">
        <ele>869.96</ele>
        <time>2018-02-22T12:12:45Z</time>
      </trkpt>
      <trkpt lat="43.77995" lon="7.12636">
        <ele>869.96</ele>
        <time>2018-02-22T12:14:10Z</time>
      </trkpt>
      <trkpt lat="43.77996" lon="7.12636">
        <ele>869.96</ele>
        <time>2018-02-22T12:15:39Z</time>
      </trkpt>
      <trkpt lat="43.77998" lon="7.12634">
        <ele>869.96</ele>
        <time>2018-02-22T12:16:54Z</time>
      </trkpt>
      <trkpt lat="43.77998" lon="7.12633">
        <ele>869.96</ele>
        <time>2018-02-22T12:17:43Z</time>
      </trkpt>
      <trkpt lat="43.78" lon="7.12635">
        <ele>869.96</ele>
        <time>2018-02-22T12:18:45Z</time>
      </trkpt>
      <trkpt lat="43.77999" lon="7.12633">
        <ele>869.96</ele>
        <time>2018-02-22T12:19:40Z</time>
      </trkpt>
      <trkpt lat="43.77996" lon="7.12632">
        <ele>869.96</ele>
        <time>2018-02-22T12:21:05Z</time>
      </trkpt>
      <trkpt lat="43.77996" lon="7.12634">
        <ele>869.96</ele>
        <time>2018-02-22T12:22:08Z</time>
      </trkpt>
      <trkpt lat="43.77999" lon="7.12636">
        <ele>869.96</ele>
        <time>2018-02-22T12:24:18Z</time>
      </trkpt>
      <trkpt lat="43.77995" lon="7.12635">
        <ele>869.96</ele>
        <time>2018-02-22T12:25:37Z</time>
      </trkpt>
      <trkpt lat="43.77995" lon="7.12634">
        <ele>869.96</ele>
        <time>2018-02-22T12:26:45Z</time>
      </trkpt>
      <trkpt lat="43.77996" lon="7.12633">
        <ele>869.96</ele>
        <time>2018-02-22T12:27:52Z</time>
      </trkpt>
      <trkpt lat="43.77994" lon="7.12634">
        <ele>869.96</ele>
        <time>2018-02-22T12:29:22Z</time>
      </trkpt>
      <trkpt lat="43.77995" lon="7.12634">
        <ele>869.96</ele>
        <time>2018-02-22T12:29:51Z</time>
      </trkpt>
      <trkpt lat="43.77994" lon="7.12634">
        <ele>869.96</ele>
        <time>2018-02-22T12:30:23Z</time>
      </trkpt>
      <trkpt lat="43.77994" lon="7.12634">
        <ele>869.96</ele>
        <time>2018-02-22T12:31:31Z</time>
      </trkpt>
      <trkpt lat="43.77995" lon="7.12633">
        <ele>869.96</ele>
        <time>2018-02-22T12:35:01Z</time>
      </trkpt>
      <trkpt lat="43.77996" lon="7.12635">
        <ele>869.96</ele>
        <time>2018-02-22T12:35:44Z</time>
      </trkpt>
      <trkpt lat="43.7799" lon="7.12644">
        <ele>870.92</ele>
        <time>2018-02-22T12:35:55Z</time>
      </trkpt>
      <trkpt lat="43.77985" lon="7.1265">
        <ele>871.34</ele>
        <time>2018-02-22T12:36:01Z</time>
      </trkpt>
      <trkpt lat="43.77967" lon="7.12664">
        <ele>870.81</ele>
        <time>2018-02-22T12:36:19Z</time>
      </trkpt>
      <trkpt lat="43.7796" lon="7.12673">
        <ele>870.9</ele>
        <time>2018-02-22T12:36:29Z</time>
      </trkpt>
      <trkpt lat="43.7795" lon="7.12682">
        <ele>871.64</ele>
        <time>2018-02-22T12:36:47Z</time>
      </trkpt>
      <trkpt lat="43.77941" lon="7.12684">
        <ele>872</ele>
        <time>2018-02-22T12:36:58Z</time>
      </trkpt>
      <trkpt lat="43.77929" lon="7.12691">
        <ele>873.25</ele>
        <time>2018-02-22T12:37:13Z</time>
      </trkpt>
      <trkpt lat="43.77921" lon="7.12688">
        <ele>873.29</ele>
        <time>2018-02-22T12:37:21Z</time>
      </trkpt>
      <trkpt lat="43.77916" lon="7.12687">
        <ele>873.8</ele>
        <time>2018-02-22T12:37:25Z</time>
      </trkpt>
      <trkpt lat="43.77912" lon="7.12686">
        <ele>874.04</ele>
        <time>2018-02-22T12:37:29Z</time>
      </trkpt>
      <trkpt lat="43.77902" lon="7.12685">
        <ele>874.06</ele>
        <time>2018-02-22T12:37:40Z</time>
      </trkpt>
      <trkpt lat="43.77884" lon="7.12681">
        <ele>873.5</ele>
        <time>2018-02-22T12:37:55Z</time>
      </trkpt>
      <trkpt lat="43.77867" lon="7.1267">
        <ele>871.38</ele>
        <time>2018-02-22T12:38:13Z</time>
      </trkpt>
      <trkpt lat="43.77859" lon="7.12662">
        <ele>870.19</ele>
        <time>2018-02-22T12:38:23Z</time>
      </trkpt>
      <trkpt lat="43.77839" lon="7.1266">
        <ele>869.06</ele>
        <time>2018-02-22T12:38:41Z</time>
      </trkpt>
      <trkpt lat="43.77821" lon="7.12659">
        <ele>869.29</ele>
        <time>2018-02-22T12:38:58Z</time>
      </trkpt>
      <trkpt lat="43.77821" lon="7.12662">
        <ele>869.13</ele>
        <time>2018-02-22T12:39:23Z</time>
      </trkpt>
      <trkpt lat="43.77825" lon="7.1266">
        <ele>869.61</ele>
        <time>2018-02-22T12:39:43Z</time>
      </trkpt>
      <trkpt lat="43.77837" lon="7.1266">
        <ele>869.13</ele>
        <time>2018-02-22T12:39:55Z</time>
      </trkpt>
      <trkpt lat="43.77836" lon="7.1266">
        <ele>869.07</ele>
        <time>2018-02-22T12:39:59Z</time>
      </trkpt>
      <trkpt lat="43.77822" lon="7.1266">
        <ele>869.1</ele>
        <time>2018-02-22T12:40:18Z</time>
      </trkpt>
      <trkpt lat="43.7782" lon="7.1266">
        <ele>869.22</ele>
        <time>2018-02-22T12:40:43Z</time>
      </trkpt>
      <trkpt lat="43.77816" lon="7.1266">
        <ele>869.68</ele>
        <time>2018-02-22T12:41:11Z</time>
      </trkpt>
      <trkpt lat="43.77799" lon="7.12672">
        <ele>870.32</ele>
        <time>2018-02-22T12:41:28Z</time>
      </trkpt>
      <trkpt lat="43.77787" lon="7.12675">
        <ele>871.04</ele>
        <time>2018-02-22T12:41:39Z</time>
      </trkpt>
      <trkpt lat="43.77777" lon="7.12679">
        <ele>871.61</ele>
        <time>2018-02-22T12:41:48Z</time>
      </trkpt>
      <trkpt lat="43.77766" lon="7.12681">
        <ele>871.95</ele>
        <time>2018-02-22T12:41:57Z</time>
      </trkpt>
      <trkpt lat="43.77756" lon="7.12682">
        <ele>872.55</ele>
        <time>2018-02-22T12:42:07Z</time>
      </trkpt>
      <trkpt lat="43.77749" lon="7.12685">
        <ele>872.97</ele>
        <time>2018-02-22T12:42:14Z</time>
      </trkpt>
      <trkpt lat="43.77741" lon="7.12696">
        <ele>874.12</ele>
        <time>2018-02-22T12:42:25Z</time>
      </trkpt>
      <trkpt lat="43.77732" lon="7.12703">
        <ele>875.8</ele>
        <time>2018-02-22T12:42:37Z</time>
      </trkpt>
      <trkpt lat="43.77722" lon="7.12711">
        <ele>877.53</ele>
        <time>2018-02-22T12:42:49Z</time>
      </trkpt>
      <trkpt lat="43.7771" lon="7.12721">
        <ele>878.76</ele>
        <time>2018-02-22T12:43:02Z</time>
      </trkpt>
      <trkpt lat="43.77702" lon="7.12729">
        <ele>880.06</ele>
        <time>2018-02-22T12:43:13Z</time>
      </trkpt>
      <trkpt lat="43.77694" lon="7.12737">
        <ele>881.21</ele>
        <time>2018-02-22T12:43:26Z</time>
      </trkpt>
      <trkpt lat="43.77684" lon="7.12747">
        <ele>882.48</ele>
        <time>2018-02-22T12:43:40Z</time>
      </trkpt>
      <trkpt lat="43.77675" lon="7.12752">
        <ele>882.73</ele>
        <time>2018-02-22T12:43:49Z</time>
      </trkpt>
      <trkpt lat="43.77666" lon="7.12758">
        <ele>882.28</ele>
        <time>2018-02-22T12:43:59Z</time>
      </trkpt>
      <trkpt lat="43.7766" lon="7.12765">
        <ele>881.4</ele>
        <time>2018-02-22T12:44:09Z</time>
      </trkpt>
      <trkpt lat="43.77649" lon="7.12781">
        <ele>880.02</ele>
        <time>2018-02-22T12:44:25Z</time>
      </trkpt>
      <trkpt lat="43.77648" lon="7.12791">
        <ele>879.59</ele>
        <time>2018-02-22T12:44:32Z</time>
      </trkpt>
      <trkpt lat="43.77647" lon="7.128">
        <ele>879.22</ele>
        <time>2018-02-22T12:44:37Z</time>
      </trkpt>
      <trkpt lat="43.77641" lon="7.12827">
        <ele>878.54</ele>
        <time>2018-02-22T12:44:54Z</time>
      </trkpt>
      <trkpt lat="43.77641" lon="7.12853">
        <ele>877.96</ele>
        <time>2018-02-22T12:45:10Z</time>
      </trkpt>
      <trkpt lat="43.77639" lon="7.12881">
        <ele>875.95</ele>
        <time>2018-02-22T12:45:29Z</time>
      </trkpt>
      <trkpt lat="43.7763" lon="7.12915">
        <ele>875</ele>
        <time>2018-02-22T12:45:52Z</time>
      </trkpt>
      <trkpt lat="43.77619" lon="7.12943">
        <ele>875.09</ele>
        <time>2018-02-22T12:46:11Z</time>
      </trkpt>
      <trkpt lat="43.77605" lon="7.12968">
        <ele>875.24</ele>
        <time>2018-02-22T12:46:29Z</time>
      </trkpt>
      <trkpt lat="43.77591" lon="7.12996">
        <ele>874.47</ele>
        <time>2018-02-22T12:46:49Z</time>
      </trkpt>
      <trkpt lat="43.77589" lon="7.13">
        <ele>874.21</ele>
        <time>2018-02-22T12:46:52Z</time>
      </trkpt>
      <trkpt lat="43.77585" lon="7.13017">
        <ele>874.13</ele>
        <time>2018-02-22T12:47:02Z</time>
      </trkpt>
      <trkpt lat="43.77582" lon="7.13028">
        <ele>874.3</ele>
        <time>2018-02-22T12:47:09Z</time>
      </trkpt>
      <trkpt lat="43.77577" lon="7.13059">
        <ele>874.46</ele>
        <time>2018-02-22T12:47:28Z</time>
      </trkpt>
      <trkpt lat="43.77574" lon="7.13085">
        <ele>875.06</ele>
        <time>2018-02-22T12:47:47Z</time>
      </trkpt>
      <trkpt lat="43.77573" lon="7.13087">
        <ele>875.02</ele>
        <time>2018-02-22T12:47:48Z</time>
      </trkpt>
      <trkpt lat="43.7757" lon="7.13103">
        <ele>874.15</ele>
        <time>2018-02-22T12:47:58Z</time>
      </trkpt>
      <trkpt lat="43.77569" lon="7.13133">
        <ele>873.53</ele>
        <time>2018-02-22T12:48:17Z</time>
      </trkpt>
      <trkpt lat="43.77572" lon="7.13155">
        <ele>872.51</ele>
        <time>2018-02-22T12:48:32Z</time>
      </trkpt>
      <trkpt lat="43.77574" lon="7.13163">
        <ele>872.24</ele>
        <time>2018-02-22T12:48:38Z</time>
      </trkpt>
      <trkpt lat="43.77587" lon="7.13182">
        <ele>870.36</ele>
        <time>2018-02-22T12:48:59Z</time>
      </trkpt>
      <trkpt lat="43.77596" lon="7.13199">
        <ele>868.16</ele>
        <time>2018-02-22T12:49:24Z</time>
      </trkpt>
      <trkpt lat="43.77596" lon="7.13209">
        <ele>865.89</ele>
        <time>2018-02-22T12:49:43Z</time>
      </trkpt>
      <trkpt lat="43.77608" lon="7.13237">
        <ele>863.17</ele>
        <time>2018-02-22T12:50:13Z</time>
      </trkpt>
      <trkpt lat="43.77619" lon="7.13256">
        <ele>861.09</ele>
        <time>2018-02-22T12:50:43Z</time>
      </trkpt>
      <trkpt lat="43.77617" lon="7.13261">
        <ele>859.21</ele>
        <time>2018-02-22T12:51:06Z</time>
      </trkpt>
      <trkpt lat="43.77611" lon="7.13263">
        <ele>859.26</ele>
        <time>2018-02-22T12:51:33Z</time>
      </trkpt>
      <trkpt lat="43.77611" lon="7.13264">
        <ele>859.66</ele>
        <time>2018-02-22T12:51:58Z</time>
      </trkpt>
      <trkpt lat="43.7761" lon="7.13265">
        <ele>858.58</ele>
        <time>2018-02-22T12:52:26Z</time>
      </trkpt>
      <trkpt lat="43.77611" lon="7.13262">
        <ele>858.69</ele>
        <time>2018-02-22T12:52:57Z</time>
      </trkpt>
      <trkpt lat="43.77612" lon="7.13263">
        <ele>858.73</ele>
        <time>2018-02-22T12:53:23Z</time>
      </trkpt>
      <trkpt lat="43.77612" lon="7.13264">
        <ele>858.7</ele>
        <time>2018-02-22T12:53:26Z</time>
      </trkpt>
      <trkpt lat="43.77612" lon="7.13263">
        <ele>858.45</ele>
        <time>2018-02-22T12:53:53Z</time>
      </trkpt>
      <trkpt lat="43.77614" lon="7.13267">
        <ele>858.7</ele>
        <time>2018-02-22T12:54:25Z</time>
      </trkpt>
      <trkpt lat="43.77613" lon="7.13271">
        <ele>858.7</ele>
        <time>2018-02-22T12:54:55Z</time>
      </trkpt>
      <trkpt lat="43.77614" lon="7.13269">
        <ele>858.7</ele>
        <time>2018-02-22T12:55:28Z</time>
      </trkpt>
      <trkpt lat="43.77614" lon="7.13269">
        <ele>858.7</ele>
        <time>2018-02-22T12:56:00Z</time>
      </trkpt>
      <trkpt lat="43.77612" lon="7.1327">
        <ele>858.7</ele>
        <time>2018-02-22T12:56:29Z</time>
      </trkpt>
      <trkpt lat="43.77613" lon="7.13272">
        <ele>858.7</ele>
        <time>2018-02-22T12:57:02Z</time>
      </trkpt>
      <trkpt lat="43.77614" lon="7.13272">
        <ele>858.7</ele>
        <time>2018-02-22T12:57:40Z</time>
      </trkpt>
      <trkpt lat="43.77613" lon="7.13271">
        <ele>858.7</ele>
        <time>2018-02-22T12:58:06Z</time>
      </trkpt>
      <trkpt lat="43.77617" lon="7.13259">
        <ele>858.7</ele>
        <time>2018-02-22T12:58:26Z</time>
      </trkpt>
      <trkpt lat="43.77616" lon="7.13259">
        <ele>858.7</ele>
        <time>2018-02-22T12:58:58Z</time>
      </trkpt>
      <trkpt lat="43.77619" lon="7.13254">
        <ele>861.6</ele>
        <time>2018-02-22T12:59:24Z</time>
      </trkpt>
      <trkpt lat="43.77619" lon="7.13253">
        <ele>861.65</ele>
        <time>2018-02-22T12:59:53Z</time>
      </trkpt>
      <trkpt lat="43.77621" lon="7.13253">
        <ele>862.16</ele>
        <time>2018-02-22T13:00:28Z</time>
      </trkpt>
      <trkpt lat="43.77623" lon="7.13262">
        <ele>862.16</ele>
        <time>2018-02-22T13:01:00Z</time>
      </trkpt>
      <trkpt lat="43.77618" lon="7.13266">
        <ele>862.16</ele>
        <time>2018-02-22T13:01:14Z</time>
      </trkpt>
      <trkpt lat="43.77615" lon="7.1327">
        <ele>859.69</ele>
        <time>2018-02-22T13:01:26Z</time>
      </trkpt>
      <trkpt lat="43.77616" lon="7.13269">
        <ele>859.87</ele>
        <time>2018-02-22T13:01:48Z</time>
      </trkpt>
      <trkpt lat="43.77615" lon="7.13271">
        <ele>859.45</ele>
        <time>2018-02-22T13:02:16Z</time>
      </trkpt>
      <trkpt lat="43.77615" lon="7.13276">
        <ele>859.27</ele>
        <time>2018-02-22T13:02:43Z</time>
      </trkpt>
      <trkpt lat="43.7761" lon="7.13287">
        <ele>859.27</ele>
        <time>2018-02-22T13:03:07Z</time>
      </trkpt>
      <trkpt lat="43.77607" lon="7.13302">
        <ele>853.65</ele>
        <time>2018-02-22T13:03:26Z</time>
      </trkpt>
      <trkpt lat="43.77606" lon="7.13303">
        <ele>853.45</ele>
        <time>2018-02-22T13:03:27Z</time>
      </trkpt>
      <trkpt lat="43.77609" lon="7.13324">
        <ele>850.81</ele>
        <time>2018-02-22T13:03:54Z</time>
      </trkpt>
      <trkpt lat="43.77607" lon="7.13341">
        <ele>847.76</ele>
        <time>2018-02-22T13:04:17Z</time>
      </trkpt>
      <trkpt lat="43.77606" lon="7.13364">
        <ele>845.57</ele>
        <time>2018-02-22T13:04:38Z</time>
      </trkpt>
      <trkpt lat="43.77612" lon="7.13388">
        <ele>843.28</ele>
        <time>2018-02-22T13:04:56Z</time>
      </trkpt>
      <trkpt lat="43.77617" lon="7.13421">
        <ele>842.17</ele>
        <time>2018-02-22T13:05:17Z</time>
      </trkpt>
      <trkpt lat="43.77615" lon="7.13445">
        <ele>842.67</ele>
        <time>2018-02-22T13:05:36Z</time>
      </trkpt>
      <trkpt lat="43.77609" lon="7.13468">
        <ele>844</ele>
        <time>2018-02-22T13:05:58Z</time>
      </trkpt>
      <trkpt lat="43.77599" lon="7.13497">
        <ele>845.52</ele>
        <time>2018-02-22T13:06:27Z</time>
      </trkpt>
      <trkpt lat="43.77596" lon="7.13515">
        <ele>846.97</ele>
        <time>2018-02-22T13:06:48Z</time>
      </trkpt>
      <trkpt lat="43.77591" lon="7.13522">
        <ele>847.51</ele>
        <time>2018-02-22T13:07:02Z</time>
      </trkpt>
      <trkpt lat="43.77576" lon="7.13531">
        <ele>848.43</ele>
        <time>2018-02-22T13:07:18Z</time>
      </trkpt>
      <trkpt lat="43.77564" lon="7.13517">
        <ele>847.66</ele>
        <time>2018-02-22T13:07:39Z</time>
      </trkpt>
      <trkpt lat="43.77561" lon="7.13516">
        <ele>848.31</ele>
        <time>2018-02-22T13:07:55Z</time>
      </trkpt>
      <trkpt lat="43.77564" lon="7.13518">
        <ele>848.3</ele>
        <time>2018-02-22T13:08:20Z</time>
      </trkpt>
      <trkpt lat="43.77567" lon="7.13518">
        <ele>848.1</ele>
        <time>2018-02-22T13:08:37Z</time>
      </trkpt>
      <trkpt lat="43.77571" lon="7.13519">
        <ele>847.99</ele>
        <time>2018-02-22T13:08:41Z</time>
      </trkpt>
      <trkpt lat="43.77578" lon="7.13531">
        <ele>848.16</ele>
        <time>2018-02-22T13:08:58Z</time>
      </trkpt>
      <trkpt lat="43.77565" lon="7.13544">
        <ele>849.78</ele>
        <time>2018-02-22T13:09:18Z</time>
      </trkpt>
      <trkpt lat="43.77562" lon="7.13565">
        <ele>849.95</ele>
        <time>2018-02-22T13:09:37Z</time>
      </trkpt>
      <trkpt lat="43.77565" lon="7.1357">
        <ele>849.86</ele>
        <time>2018-02-22T13:09:59Z</time>
      </trkpt>
      <trkpt lat="43.77562" lon="7.13565">
        <ele>849.82</ele>
        <time>2018-02-22T13:10:22Z</time>
      </trkpt>
      <trkpt lat="43.7756" lon="7.13565">
        <ele>849.78</ele>
        <time>2018-02-22T13:10:23Z</time>
      </trkpt>
      <trkpt lat="43.77545" lon="7.13567">
        <ele>850.37</ele>
        <time>2018-02-22T13:10:37Z</time>
      </trkpt>
      <trkpt lat="43.77536" lon="7.13573">
        <ele>850.95</ele>
        <time>2018-02-22T13:10:53Z</time>
      </trkpt>
      <trkpt lat="43.77535" lon="7.13573">
        <ele>851.22</ele>
        <time>2018-02-22T13:11:04Z</time>
      </trkpt>
      <trkpt lat="43.77526" lon="7.13583">
        <ele>850.39</ele>
        <time>2018-02-22T13:11:20Z</time>
      </trkpt>
      <trkpt lat="43.77529" lon="7.13587">
        <ele>850.24</ele>
        <time>2018-02-22T13:11:35Z</time>
      </trkpt>
      <trkpt lat="43.77536" lon="7.13601">
        <ele>849.24</ele>
        <time>2018-02-22T13:11:48Z</time>
      </trkpt>
      <trkpt lat="43.77542" lon="7.13608">
        <ele>849.27</ele>
        <time>2018-02-22T13:11:55Z</time>
      </trkpt>
      <trkpt lat="43.7756" lon="7.13613">
        <ele>848.58</ele>
        <time>2018-02-22T13:12:12Z</time>
      </trkpt>
      <trkpt lat="43.77568" lon="7.13614">
        <ele>848.88</ele>
        <time>2018-02-22T13:12:28Z</time>
      </trkpt>
      <trkpt lat="43.77572" lon="7.13634">
        <ele>849.26</ele>
        <time>2018-02-22T13:12:42Z</time>
      </trkpt>
      <trkpt lat="43.77573" lon="7.13652">
        <ele>849.45</ele>
        <time>2018-02-22T13:12:56Z</time>
      </trkpt>
      <trkpt lat="43.77577" lon="7.13667">
        <ele>849.45</ele>
        <time>2018-02-22T13:13:16Z</time>
      </trkpt>
      <trkpt lat="43.77577" lon="7.13681">
        <ele>848.23</ele>
        <time>2018-02-22T13:13:28Z</time>
      </trkpt>
      <trkpt lat="43.77576" lon="7.1369">
        <ele>847.33</ele>
        <time>2018-02-22T13:13:33Z</time>
      </trkpt>
      <trkpt lat="43.77575" lon="7.137">
        <ele>847.04</ele>
        <time>2018-02-22T13:13:50Z</time>
      </trkpt>
      <trkpt lat="43.77575" lon="7.13709">
        <ele>846.76</ele>
        <time>2018-02-22T13:14:02Z</time>
      </trkpt>
      <trkpt lat="43.77572" lon="7.13726">
        <ele>845.36</ele>
        <time>2018-02-22T13:14:19Z</time>
      </trkpt>
      <trkpt lat="43.77571" lon="7.13728">
        <ele>845.18</ele>
        <time>2018-02-22T13:14:45Z</time>
      </trkpt>
      <trkpt lat="43.77573" lon="7.1373">
        <ele>844.8</ele>
        <time>2018-02-22T13:15:14Z</time>
      </trkpt>
      <trkpt lat="43.77577" lon="7.13739">
        <ele>842.5</ele>
        <time>2018-02-22T13:15:30Z</time>
      </trkpt>
      <trkpt lat="43.77573" lon="7.13745">
        <ele>841.04</ele>
        <time>2018-02-22T13:15:49Z</time>
      </trkpt>
      <trkpt lat="43.77575" lon="7.1375">
        <ele>839.17</ele>
        <time>2018-02-22T13:16:02Z</time>
      </trkpt>
      <trkpt lat="43.77568" lon="7.13772">
        <ele>835.89</ele>
        <time>2018-02-22T13:16:24Z</time>
      </trkpt>
      <trkpt lat="43.77567" lon="7.13781">
        <ele>834.85</ele>
        <time>2018-02-22T13:16:41Z</time>
      </trkpt>
      <trkpt lat="43.77569" lon="7.13789">
        <ele>833.75</ele>
        <time>2018-02-22T13:16:56Z</time>
      </trkpt>
      <trkpt lat="43.77574" lon="7.13797">
        <ele>832.01</ele>
        <time>2018-02-22T13:17:09Z</time>
      </trkpt>
      <trkpt lat="43.77571" lon="7.1382">
        <ele>830.59</ele>
        <time>2018-02-22T13:17:30Z</time>
      </trkpt>
      <trkpt lat="43.77567" lon="7.13835">
        <ele>830.06</ele>
        <time>2018-02-22T13:17:51Z</time>
      </trkpt>
      <trkpt lat="43.77568" lon="7.13837">
        <ele>830.01</ele>
        <time>2018-02-22T13:18:18Z</time>
      </trkpt>
      <trkpt lat="43.77569" lon="7.13838">
        <ele>830.16</ele>
        <time>2018-02-22T13:18:41Z</time>
      </trkpt>
      <trkpt lat="43.77566" lon="7.13839">
        <ele>830.16</ele>
        <time>2018-02-22T13:19:40Z</time>
      </trkpt>
      <trkpt lat="43.77554" lon="7.13842">
        <ele>828.13</ele>
        <time>2018-02-22T13:19:53Z</time>
      </trkpt>
      <trkpt lat="43.77547" lon="7.13848">
        <ele>826.37</ele>
        <time>2018-02-22T13:20:07Z</time>
      </trkpt>
      <trkpt lat="43.77534" lon="7.1386">
        <ele>823.18</ele>
        <time>2018-02-22T13:20:27Z</time>
      </trkpt>
      <trkpt lat="43.77529" lon="7.13872">
        <ele>820.01</ele>
        <time>2018-02-22T13:20:46Z</time>
      </trkpt>
      <trkpt lat="43.77519" lon="7.13879">
        <ele>817.45</ele>
        <time>2018-02-22T13:21:04Z</time>
      </trkpt>
      <trkpt lat="43.77518" lon="7.1387">
        <ele>815.95</ele>
        <time>2018-02-22T13:21:32Z</time>
      </trkpt>
      <trkpt lat="43.7752" lon="7.13865">
        <ele>815.98</ele>
        <time>2018-02-22T13:21:55Z</time>
      </trkpt>
      <trkpt lat="43.77521" lon="7.13872">
        <ele>816.45</ele>
        <time>2018-02-22T13:22:21Z</time>
      </trkpt>
      <trkpt lat="43.7752" lon="7.13871">
        <ele>816.45</ele>
        <time>2018-02-22T13:22:23Z</time>
      </trkpt>
      <trkpt lat="43.77512" lon="7.13889">
        <ele>816.45</ele>
        <time>2018-02-22T13:22:51Z</time>
      </trkpt>
      <trkpt lat="43.77506" lon="7.13906">
        <ele>808.71</ele>
        <time>2018-02-22T13:23:11Z</time>
      </trkpt>
      <trkpt lat="43.77506" lon="7.13906">
        <ele>808.89</ele>
        <time>2018-02-22T13:23:12Z</time>
      </trkpt>
      <trkpt lat="43.77499" lon="7.13918">
        <ele>807.98</ele>
        <time>2018-02-22T13:23:37Z</time>
      </trkpt>
      <trkpt lat="43.77494" lon="7.1393">
        <ele>805.32</ele>
        <time>2018-02-22T13:23:49Z</time>
      </trkpt>
      <trkpt lat="43.77485" lon="7.13954">
        <ele>802.9</ele>
        <time>2018-02-22T13:24:05Z</time>
      </trkpt>
      <trkpt lat="43.77484" lon="7.13958">
        <ele>802.28</ele>
        <time>2018-02-22T13:24:07Z</time>
      </trkpt>
      <trkpt lat="43.77474" lon="7.13978">
        <ele>800.5</ele>
        <time>2018-02-22T13:24:24Z</time>
      </trkpt>
      <trkpt lat="43.77462" lon="7.13983">
        <ele>798.66</ele>
        <time>2018-02-22T13:24:45Z</time>
      </trkpt>
      <trkpt lat="43.77452" lon="7.13993">
        <ele>796.77</ele>
        <time>2018-02-22T13:25:08Z</time>
      </trkpt>
      <trkpt lat="43.77449" lon="7.13994">
        <ele>796.57</ele>
        <time>2018-02-22T13:25:10Z</time>
      </trkpt>
      <trkpt lat="43.77421" lon="7.14003">
        <ele>795.17</ele>
        <time>2018-02-22T13:25:29Z</time>
      </trkpt>
      <trkpt lat="43.77421" lon="7.14008">
        <ele>794.53</ele>
        <time>2018-02-22T13:25:47Z</time>
      </trkpt>
      <trkpt lat="43.77405" lon="7.14016">
        <ele>793.99</ele>
        <time>2018-02-22T13:26:12Z</time>
      </trkpt>
      <trkpt lat="43.77388" lon="7.14027">
        <ele>793.28</ele>
        <time>2018-02-22T13:26:28Z</time>
      </trkpt>
      <trkpt lat="43.77371" lon="7.14041">
        <ele>792.68</ele>
        <time>2018-02-22T13:26:45Z</time>
      </trkpt>
      <trkpt lat="43.77365" lon="7.14048">
        <ele>792.18</ele>
        <time>2018-02-22T13:26:52Z</time>
      </trkpt>
      <trkpt lat="43.77355" lon="7.14068">
        <ele>791.87</ele>
        <time>2018-02-22T13:27:07Z</time>
      </trkpt>
      <trkpt lat="43.77353" lon="7.14068">
        <ele>791.82</ele>
        <time>2018-02-22T13:27:30Z</time>
      </trkpt>
      <trkpt lat="43.77356" lon="7.14071">
        <ele>791.83</ele>
        <time>2018-02-22T13:27:57Z</time>
      </trkpt>
      <trkpt lat="43.77338" lon="7.14086">
        <ele>790.44</ele>
        <time>2018-02-22T13:28:18Z</time>
      </trkpt>
      <trkpt lat="43.77319" lon="7.14107">
        <ele>787.85</ele>
        <time>2018-02-22T13:28:45Z</time>
      </trkpt>
      <trkpt lat="43.77312" lon="7.14125">
        <ele>785.52</ele>
        <time>2018-02-22T13:29:03Z</time>
      </trkpt>
      <trkpt lat="43.77305" lon="7.14147">
        <ele>782.61</ele>
        <time>2018-02-22T13:29:24Z</time>
      </trkpt>
      <trkpt lat="43.77295" lon="7.14168">
        <ele>779.75</ele>
        <time>2018-02-22T13:29:45Z</time>
      </trkpt>
      <trkpt lat="43.77287" lon="7.14183">
        <ele>777.82</ele>
        <time>2018-02-22T13:30:03Z</time>
      </trkpt>
      <trkpt lat="43.77277" lon="7.14193">
        <ele>775.65</ele>
        <time>2018-02-22T13:30:25Z</time>
      </trkpt>
      <trkpt lat="43.77263" lon="7.14214">
        <ele>772.59</ele>
        <time>2018-02-22T13:30:52Z</time>
      </trkpt>
      <trkpt lat="43.77257" lon="7.14231">
        <ele>770.36</ele>
        <time>2018-02-22T13:31:09Z</time>
      </trkpt>
      <trkpt lat="43.7725" lon="7.14238">
        <ele>769.53</ele>
        <time>2018-02-22T13:31:18Z</time>
      </trkpt>
      <trkpt lat="43.77249" lon="7.1426">
        <ele>767.8</ele>
        <time>2018-02-22T13:31:39Z</time>
      </trkpt>
      <trkpt lat="43.77237" lon="7.14256">
        <ele>765.87</ele>
        <time>2018-02-22T13:31:57Z</time>
      </trkpt>
      <trkpt lat="43.7722" lon="7.14254">
        <ele>764.37</ele>
        <time>2018-02-22T13:32:13Z</time>
      </trkpt>
      <trkpt lat="43.77208" lon="7.1426">
        <ele>763.6</ele>
        <time>2018-02-22T13:32:27Z</time>
      </trkpt>
      <trkpt lat="43.77192" lon="7.14272">
        <ele>762.75</ele>
        <time>2018-02-22T13:32:42Z</time>
      </trkpt>
      <trkpt lat="43.77192" lon="7.14274">
        <ele>762.32</ele>
        <time>2018-02-22T13:32:54Z</time>
      </trkpt>
      <trkpt lat="43.7719" lon="7.14276">
        <ele>762.38</ele>
        <time>2018-02-22T13:33:00Z</time>
      </trkpt>
      <trkpt lat="43.77178" lon="7.14286">
        <ele>761.92</ele>
        <time>2018-02-22T13:33:14Z</time>
      </trkpt>
      <trkpt lat="43.77178" lon="7.14292">
        <ele>762.1</ele>
        <time>2018-02-22T13:33:19Z</time>
      </trkpt>
      <trkpt lat="43.77164" lon="7.14313">
        <ele>761.31</ele>
        <time>2018-02-22T13:33:36Z</time>
      </trkpt>
      <trkpt lat="43.77149" lon="7.1433">
        <ele>761.08</ele>
        <time>2018-02-22T13:33:51Z</time>
      </trkpt>
      <trkpt lat="43.77133" lon="7.14346">
        <ele>760.04</ele>
        <time>2018-02-22T13:34:08Z</time>
      </trkpt>
      <trkpt lat="43.77122" lon="7.14363">
        <ele>758.73</ele>
        <time>2018-02-22T13:34:23Z</time>
      </trkpt>
      <trkpt lat="43.77117" lon="7.14372">
        <ele>758.28</ele>
        <time>2018-02-22T13:34:32Z</time>
      </trkpt>
      <trkpt lat="43.77103" lon="7.14389">
        <ele>757.93</ele>
        <time>2018-02-22T13:34:47Z</time>
      </trkpt>
      <trkpt lat="43.77099" lon="7.14394">
        <ele>757.71</ele>
        <time>2018-02-22T13:34:52Z</time>
      </trkpt>
      <trkpt lat="43.77085" lon="7.14403">
        <ele>757.24</ele>
        <time>2018-02-22T13:35:06Z</time>
      </trkpt>
      <trkpt lat="43.77081" lon="7.14407">
        <ele>756.92</ele>
        <time>2018-02-22T13:35:10Z</time>
      </trkpt>
      <trkpt lat="43.7706" lon="7.14419">
        <ele>755.61</ele>
        <time>2018-02-22T13:35:27Z</time>
      </trkpt>
      <trkpt lat="43.77054" lon="7.14425">
        <ele>755.6</ele>
        <time>2018-02-22T13:35:33Z</time>
      </trkpt>
      <trkpt lat="43.77043" lon="7.14431">
        <ele>755.57</ele>
        <time>2018-02-22T13:35:48Z</time>
      </trkpt>
      <trkpt lat="43.77034" lon="7.14439">
        <ele>754.58</ele>
        <time>2018-02-22T13:36:05Z</time>
      </trkpt>
      <trkpt lat="43.77028" lon="7.14446">
        <ele>754.7</ele>
        <time>2018-02-22T13:36:14Z</time>
      </trkpt>
      <trkpt lat="43.77012" lon="7.14457">
        <ele>753.68</ele>
        <time>2018-02-22T13:36:31Z</time>
      </trkpt>
      <trkpt lat="43.76996" lon="7.14463">
        <ele>752.45</ele>
        <time>2018-02-22T13:36:49Z</time>
      </trkpt>
      <trkpt lat="43.76978" lon="7.14474">
        <ele>750.87</ele>
        <time>2018-02-22T13:37:06Z</time>
      </trkpt>
      <trkpt lat="43.7696" lon="7.14476">
        <ele>749.63</ele>
        <time>2018-02-22T13:37:25Z</time>
      </trkpt>
      <trkpt lat="43.76959" lon="7.14478">
        <ele>749.87</ele>
        <time>2018-02-22T13:37:49Z</time>
      </trkpt>
      <trkpt lat="43.76951" lon="7.14476">
        <ele>749.49</ele>
        <time>2018-02-22T13:38:15Z</time>
      </trkpt>
      <trkpt lat="43.76935" lon="7.14479">
        <ele>747.42</ele>
        <time>2018-02-22T13:38:35Z</time>
      </trkpt>
      <trkpt lat="43.76918" lon="7.14485">
        <ele>744.99</ele>
        <time>2018-02-22T13:38:57Z</time>
      </trkpt>
      <trkpt lat="43.76898" lon="7.14488">
        <ele>743.66</ele>
        <time>2018-02-22T13:39:15Z</time>
      </trkpt>
      <trkpt lat="43.76879" lon="7.14489">
        <ele>742.8</ele>
        <time>2018-02-22T13:39:33Z</time>
      </trkpt>
      <trkpt lat="43.76859" lon="7.14489">
        <ele>741.03</ele>
        <time>2018-02-22T13:39:53Z</time>
      </trkpt>
      <trkpt lat="43.7684" lon="7.14485">
        <ele>738.55</ele>
        <time>2018-02-22T13:40:20Z</time>
      </trkpt>
      <trkpt lat="43.76823" lon="7.14481">
        <ele>735.72</ele>
        <time>2018-02-22T13:40:46Z</time>
      </trkpt>
      <trkpt lat="43.76811" lon="7.1448">
        <ele>734.9</ele>
        <time>2018-02-22T13:41:21Z</time>
      </trkpt>
      <trkpt lat="43.76795" lon="7.14477">
        <ele>732.11</ele>
        <time>2018-02-22T13:41:46Z</time>
      </trkpt>
      <trkpt lat="43.7678" lon="7.14476">
        <ele>729.11</ele>
        <time>2018-02-22T13:42:10Z</time>
      </trkpt>
      <trkpt lat="43.76762" lon="7.1447">
        <ele>727.25</ele>
        <time>2018-02-22T13:42:36Z</time>
      </trkpt>
      <trkpt lat="43.7675" lon="7.1446">
        <ele>724.91</ele>
        <time>2018-02-22T13:43:01Z</time>
      </trkpt>
      <trkpt lat="43.76747" lon="7.14461">
        <ele>724.04</ele>
        <time>2018-02-22T13:43:23Z</time>
      </trkpt>
      <trkpt lat="43.76747" lon="7.14463">
        <ele>724.23</ele>
        <time>2018-02-22T13:43:31Z</time>
      </trkpt>
      <trkpt lat="43.76749" lon="7.14472">
        <ele>724.46</ele>
        <time>2018-02-22T13:43:55Z</time>
      </trkpt>
      <trkpt lat="43.76742" lon="7.14473">
        <ele>724.25</ele>
        <time>2018-02-22T13:44:11Z</time>
      </trkpt>
      <trkpt lat="43.76739" lon="7.14474">
        <ele>724.25</ele>
        <time>2018-02-22T13:44:38Z</time>
      </trkpt>
      <trkpt lat="43.76741" lon="7.1447">
        <ele>724.25</ele>
        <time>2018-02-22T13:45:03Z</time>
      </trkpt>
      <trkpt lat="43.76741" lon="7.14469">
        <ele>724.25</ele>
        <time>2018-02-22T13:45:15Z</time>
      </trkpt>
      <trkpt lat="43.7674" lon="7.14475">
        <ele>724.25</ele>
        <time>2018-02-22T13:45:37Z</time>
      </trkpt>
      <trkpt lat="43.76741" lon="7.14475">
        <ele>724.25</ele>
        <time>2018-02-22T13:46:05Z</time>
      </trkpt>
      <trkpt lat="43.76741" lon="7.14475">
        <ele>724.25</ele>
        <time>2018-02-22T13:46:30Z</time>
      </trkpt>
      <trkpt lat="43.76738" lon="7.14474">
        <ele>724.25</ele>
        <time>2018-02-22T13:46:54Z</time>
      </trkpt>
      <trkpt lat="43.76737" lon="7.14475">
        <ele>724.25</ele>
        <time>2018-02-22T13:47:21Z</time>
      </trkpt>
      <trkpt lat="43.76736" lon="7.14477">
        <ele>724.25</ele>
        <time>2018-02-22T13:47:47Z</time>
      </trkpt>
      <trkpt lat="43.76738" lon="7.14475">
        <ele>724.25</ele>
        <time>2018-02-22T13:48:14Z</time>
      </trkpt>
      <trkpt lat="43.76727" lon="7.14461">
        <ele>724.25</ele>
        <time>2018-02-22T13:48:35Z</time>
      </trkpt>
      <trkpt lat="43.76708" lon="7.14448">
        <ele>724.25</ele>
        <time>2018-02-22T13:49:01Z</time>
      </trkpt>
      <trkpt lat="43.767" lon="7.14445">
        <ele>718.89</ele>
        <time>2018-02-22T13:49:16Z</time>
      </trkpt>
      <trkpt lat="43.767" lon="7.14445">
        <ele>718.86</ele>
        <time>2018-02-22T13:49:17Z</time>
      </trkpt>
      <trkpt lat="43.76691" lon="7.14446">
        <ele>717.52</ele>
        <time>2018-02-22T13:49:37Z</time>
      </trkpt>
      <trkpt lat="43.76676" lon="7.14439">
        <ele>715.77</ele>
        <time>2018-02-22T13:50:00Z</time>
      </trkpt>
      <trkpt lat="43.76679" lon="7.14445">
        <ele>715.33</ele>
        <time>2018-02-22T13:50:22Z</time>
      </trkpt>
      <trkpt lat="43.76683" lon="7.14448">
        <ele>716.49</ele>
        <time>2018-02-22T13:50:43Z</time>
      </trkpt>
      <trkpt lat="43.7668" lon="7.14449">
        <ele>716.07</ele>
        <time>2018-02-22T13:51:10Z</time>
      </trkpt>
      <trkpt lat="43.76674" lon="7.14443">
        <ele>715.21</ele>
        <time>2018-02-22T13:51:29Z</time>
      </trkpt>
      <trkpt lat="43.76662" lon="7.14438">
        <ele>713.15</ele>
        <time>2018-02-22T13:51:54Z</time>
      </trkpt>
      <trkpt lat="43.76651" lon="7.14438">
        <ele>711.16</ele>
        <time>2018-02-22T13:52:17Z</time>
      </trkpt>
      <trkpt lat="43.76637" lon="7.14433">
        <ele>708.54</ele>
        <time>2018-02-22T13:52:39Z</time>
      </trkpt>
      <trkpt lat="43.76628" lon="7.14431">
        <ele>707.63</ele>
        <time>2018-02-22T13:53:00Z</time>
      </trkpt>
      <trkpt lat="43.76616" lon="7.14434">
        <ele>706.56</ele>
        <time>2018-02-22T13:53:18Z</time>
      </trkpt>
      <trkpt lat="43.76605" lon="7.14426">
        <ele>705.02</ele>
        <time>2018-02-22T13:53:40Z</time>
      </trkpt>
      <trkpt lat="43.766" lon="7.14427">
        <ele>704.73</ele>
        <time>2018-02-22T13:53:45Z</time>
      </trkpt>
      <trkpt lat="43.76593" lon="7.14433">
        <ele>703.59</ele>
        <time>2018-02-22T13:54:05Z</time>
      </trkpt>
      <trkpt lat="43.76582" lon="7.14439">
        <ele>702.4</ele>
        <time>2018-02-22T13:54:17Z</time>
      </trkpt>
      <trkpt lat="43.76571" lon="7.14442">
        <ele>701.95</ele>
        <time>2018-02-22T13:54:28Z</time>
      </trkpt>
      <trkpt lat="43.76552" lon="7.14439">
        <ele>700.85</ele>
        <time>2018-02-22T13:54:44Z</time>
      </trkpt>
      <trkpt lat="43.76546" lon="7.14437">
        <ele>700.67</ele>
        <time>2018-02-22T13:54:50Z</time>
      </trkpt>
      <trkpt lat="43.76531" lon="7.14434">
        <ele>699.25</ele>
        <time>2018-02-22T13:55:06Z</time>
      </trkpt>
      <trkpt lat="43.76516" lon="7.14444">
        <ele>697.64</ele>
        <time>2018-02-22T13:55:26Z</time>
      </trkpt>
      <trkpt lat="43.76502" lon="7.14452">
        <ele>696</ele>
        <time>2018-02-22T13:55:48Z</time>
      </trkpt>
      <trkpt lat="43.76489" lon="7.14458">
        <ele>693.76</ele>
        <time>2018-02-22T13:56:07Z</time>
      </trkpt>
      <trkpt lat="43.76474" lon="7.14461">
        <ele>691.24</ele>
        <time>2018-02-22T13:56:29Z</time>
      </trkpt>
      <trkpt lat="43.76459" lon="7.14462">
        <ele>689.16</ele>
        <time>2018-02-22T13:56:50Z</time>
      </trkpt>
      <trkpt lat="43.76443" lon="7.14458">
        <ele>687.5</ele>
        <time>2018-02-22T13:57:09Z</time>
      </trkpt>
      <trkpt lat="43.76425" lon="7.14454">
        <ele>685.94</ele>
        <time>2018-02-22T13:57:32Z</time>
      </trkpt>
      <trkpt lat="43.76411" lon="7.14446">
        <ele>684.05</ele>
        <time>2018-02-22T13:57:53Z</time>
      </trkpt>
      <trkpt lat="43.76409" lon="7.14447">
        <ele>683.78</ele>
        <time>2018-02-22T13:57:57Z</time>
      </trkpt>
      <trkpt lat="43.76398" lon="7.14451">
        <ele>682.1</ele>
        <time>2018-02-22T13:58:16Z</time>
      </trkpt>
      <trkpt lat="43.76381" lon="7.14452">
        <ele>680.81</ele>
        <time>2018-02-22T13:58:32Z</time>
      </trkpt>
      <trkpt lat="43.76363" lon="7.14447">
        <ele>679.14</ele>
        <time>2018-02-22T13:58:54Z</time>
      </trkpt>
      <trkpt lat="43.76346" lon="7.14452">
        <ele>678.09</ele>
        <time>2018-02-22T13:59:12Z</time>
      </trkpt>
      <trkpt lat="43.76329" lon="7.14457">
        <ele>677.66</ele>
        <time>2018-02-22T13:59:27Z</time>
      </trkpt>
      <trkpt lat="43.7631" lon="7.14457">
        <ele>677.18</ele>
        <time>2018-02-22T13:59:44Z</time>
      </trkpt>
      <trkpt lat="43.76297" lon="7.14455">
        <ele>676.7</ele>
        <time>2018-02-22T13:59:58Z</time>
      </trkpt>
      <trkpt lat="43.76283" lon="7.14447">
        <ele>674.84</ele>
        <time>2018-02-22T14:00:18Z</time>
      </trkpt>
      <trkpt lat="43.76267" lon="7.14443">
        <ele>673.83</ele>
        <time>2018-02-22T14:00:34Z</time>
      </trkpt>
      <trkpt lat="43.76248" lon="7.14441">
        <ele>672.75</ele>
        <time>2018-02-22T14:00:51Z</time>
      </trkpt>
      <trkpt lat="43.7624" lon="7.14439">
        <ele>672.32</ele>
        <time>2018-02-22T14:01:00Z</time>
      </trkpt>
      <trkpt lat="43.76231" lon="7.14438">
        <ele>671.71</ele>
        <time>2018-02-22T14:01:07Z</time>
      </trkpt>
      <trkpt lat="43.7621" lon="7.14429">
        <ele>670.85</ele>
        <time>2018-02-22T14:01:26Z</time>
      </trkpt>
      <trkpt lat="43.76196" lon="7.14422">
        <ele>669.95</ele>
        <time>2018-02-22T14:01:41Z</time>
      </trkpt>
      <trkpt lat="43.76182" lon="7.14417">
        <ele>669.03</ele>
        <time>2018-02-22T14:01:56Z</time>
      </trkpt>
      <trkpt lat="43.76161" lon="7.14412">
        <ele>668.06</ele>
        <time>2018-02-22T14:02:14Z</time>
      </trkpt>
      <trkpt lat="43.76144" lon="7.14405">
        <ele>667.34</ele>
        <time>2018-02-22T14:02:33Z</time>
      </trkpt>
      <trkpt lat="43.76132" lon="7.144">
        <ele>665.93</ele>
        <time>2018-02-22T14:02:54Z</time>
      </trkpt>
      <trkpt lat="43.76121" lon="7.14389">
        <ele>665.25</ele>
        <time>2018-02-22T14:03:13Z</time>
      </trkpt>
      <trkpt lat="43.76113" lon="7.14385">
        <ele>664.75</ele>
        <time>2018-02-22T14:03:24Z</time>
      </trkpt>
      <trkpt lat="43.76097" lon="7.14379">
        <ele>663.85</ele>
        <time>2018-02-22T14:03:40Z</time>
      </trkpt>
      <trkpt lat="43.7609" lon="7.14372">
        <ele>663.16</ele>
        <time>2018-02-22T14:03:50Z</time>
      </trkpt>
      <trkpt lat="43.76081" lon="7.14363">
        <ele>661.99</ele>
        <time>2018-02-22T14:04:04Z</time>
      </trkpt>
      <trkpt lat="43.76067" lon="7.14349">
        <ele>660.76</ele>
        <time>2018-02-22T14:04:24Z</time>
      </trkpt>
      <trkpt lat="43.76055" lon="7.14341">
        <ele>659.78</ele>
        <time>2018-02-22T14:04:42Z</time>
      </trkpt>
      <trkpt lat="43.76041" lon="7.14331">
        <ele>659</ele>
        <time>2018-02-22T14:05:01Z</time>
      </trkpt>
      <trkpt lat="43.76034" lon="7.14327">
        <ele>658.36</ele>
        <time>2018-02-22T14:05:08Z</time>
      </trkpt>
      <trkpt lat="43.76014" lon="7.14318">
        <ele>656.72</ele>
        <time>2018-02-22T14:05:29Z</time>
      </trkpt>
      <trkpt lat="43.75995" lon="7.14313">
        <ele>655.96</ele>
        <time>2018-02-22T14:05:47Z</time>
      </trkpt>
      <trkpt lat="43.75977" lon="7.14308">
        <ele>654.68</ele>
        <time>2018-02-22T14:06:09Z</time>
      </trkpt>
      <trkpt lat="43.75963" lon="7.14306">
        <ele>652.37</ele>
        <time>2018-02-22T14:06:35Z</time>
      </trkpt>
      <trkpt lat="43.75948" lon="7.14308">
        <ele>650.65</ele>
        <time>2018-02-22T14:06:57Z</time>
      </trkpt>
      <trkpt lat="43.75933" lon="7.14307">
        <ele>649.36</ele>
        <time>2018-02-22T14:07:18Z</time>
      </trkpt>
      <trkpt lat="43.7592" lon="7.14307">
        <ele>647.59</ele>
        <time>2018-02-22T14:07:43Z</time>
      </trkpt>
      <trkpt lat="43.75918" lon="7.14315">
        <ele>648.23</ele>
        <time>2018-02-22T14:08:04Z</time>
      </trkpt>
      <trkpt lat="43.75919" lon="7.14315">
        <ele>648.32</ele>
        <time>2018-02-22T14:08:30Z</time>
      </trkpt>
      <trkpt lat="43.7592" lon="7.14315">
        <ele>648.23</ele>
        <time>2018-02-22T14:08:59Z</time>
      </trkpt>
      <trkpt lat="43.75921" lon="7.14318">
        <ele>648.08</ele>
        <time>2018-02-22T14:09:31Z</time>
      </trkpt>
      <trkpt lat="43.75917" lon="7.14315">
        <ele>647.27</ele>
        <time>2018-02-22T14:09:54Z</time>
      </trkpt>
      <trkpt lat="43.7592" lon="7.14313">
        <ele>647.36</ele>
        <time>2018-02-22T14:10:28Z</time>
      </trkpt>
      <trkpt lat="43.75923" lon="7.1431">
        <ele>647.03</ele>
        <time>2018-02-22T14:10:53Z</time>
      </trkpt>
      <trkpt lat="43.75923" lon="7.14311">
        <ele>647.4</ele>
        <time>2018-02-22T14:11:21Z</time>
      </trkpt>
      <trkpt lat="43.75923" lon="7.14312">
        <ele>647.07</ele>
        <time>2018-02-22T14:11:56Z</time>
      </trkpt>
      <trkpt lat="43.75923" lon="7.14313">
        <ele>647.07</ele>
        <time>2018-02-22T14:12:35Z</time>
      </trkpt>
      <trkpt lat="43.75922" lon="7.14312">
        <ele>647.07</ele>
        <time>2018-02-22T14:13:37Z</time>
      </trkpt>
      <trkpt lat="43.75921" lon="7.14314">
        <ele>647.07</ele>
        <time>2018-02-22T14:14:39Z</time>
      </trkpt>
      <trkpt lat="43.75921" lon="7.14315">
        <ele>647.07</ele>
        <time>2018-02-22T14:15:05Z</time>
      </trkpt>
      <trkpt lat="43.7592" lon="7.14316">
        <ele>647.07</ele>
        <time>2018-02-22T14:15:26Z</time>
      </trkpt>
      <trkpt lat="43.7592" lon="7.14317">
        <ele>647.07</ele>
        <time>2018-02-22T14:16:25Z</time>
      </trkpt>
      <trkpt lat="43.75918" lon="7.14317">
        <ele>647.07</ele>
        <time>2018-02-22T14:16:43Z</time>
      </trkpt>
      <trkpt lat="43.75921" lon="7.14312">
        <ele>647.07</ele>
        <time>2018-02-22T14:17:01Z</time>
      </trkpt>
      <trkpt lat="43.7592" lon="7.14313">
        <ele>647.07</ele>
        <time>2018-02-22T14:17:10Z</time>
      </trkpt>
      <trkpt lat="43.7592" lon="7.14315">
        <ele>647.07</ele>
        <time>2018-02-22T14:17:31Z</time>
      </trkpt>
      <trkpt lat="43.75918" lon="7.14316">
        <ele>647.07</ele>
        <time>2018-02-22T14:18:02Z</time>
      </trkpt>
      <trkpt lat="43.75921" lon="7.14314">
        <ele>647.07</ele>
        <time>2018-02-22T14:18:36Z</time>
      </trkpt>
      <trkpt lat="43.75924" lon="7.14314">
        <ele>647.07</ele>
        <time>2018-02-22T14:18:59Z</time>
      </trkpt>
      <trkpt lat="43.75922" lon="7.14318">
        <ele>647.07</ele>
        <time>2018-02-22T14:19:25Z</time>
      </trkpt>
      <trkpt lat="43.75922" lon="7.14318">
        <ele>647.07</ele>
        <time>2018-02-22T14:19:57Z</time>
      </trkpt>
      <trkpt lat="43.75918" lon="7.14321">
        <ele>647.07</ele>
        <time>2018-02-22T14:20:19Z</time>
      </trkpt>
      <trkpt lat="43.75921" lon="7.14318">
        <ele>647.07</ele>
        <time>2018-02-22T14:20:50Z</time>
      </trkpt>
      <trkpt lat="43.75921" lon="7.14317">
        <ele>647.07</ele>
        <time>2018-02-22T14:21:10Z</time>
      </trkpt>
      <trkpt lat="43.75919" lon="7.14316">
        <ele>647.07</ele>
        <time>2018-02-22T14:22:00Z</time>
      </trkpt>
      <trkpt lat="43.7592" lon="7.14316">
        <ele>647.07</ele>
        <time>2018-02-22T14:22:47Z</time>
      </trkpt>
      <trkpt lat="43.75921" lon="7.14316">
        <ele>647.07</ele>
        <time>2018-02-22T14:23:23Z</time>
      </trkpt>
      <trkpt lat="43.75924" lon="7.14316">
        <ele>647.07</ele>
        <time>2018-02-22T14:23:44Z</time>
      </trkpt>
      <trkpt lat="43.75923" lon="7.14316">
        <ele>647.07</ele>
        <time>2018-02-22T14:24:19Z</time>
      </trkpt>
      <trkpt lat="43.75922" lon="7.14316">
        <ele>647.07</ele>
        <time>2018-02-22T14:24:52Z</time>
      </trkpt>
      <trkpt lat="43.75923" lon="7.14317">
        <ele>647.07</ele>
        <time>2018-02-22T14:25:25Z</time>
      </trkpt>
      <trkpt lat="43.75924" lon="7.14322">
        <ele>647.07</ele>
        <time>2018-02-22T14:25:58Z</time>
      </trkpt>
      <trkpt lat="43.75924" lon="7.14319">
        <ele>647.07</ele>
        <time>2018-02-22T14:26:38Z</time>
      </trkpt>
      <trkpt lat="43.75923" lon="7.14318">
        <ele>647.07</ele>
        <time>2018-02-22T14:27:07Z</time>
      </trkpt>
      <trkpt lat="43.75919" lon="7.14313">
        <ele>647.07</ele>
        <time>2018-02-22T14:27:34Z</time>
      </trkpt>
      <trkpt lat="43.75923" lon="7.14316">
        <ele>647.07</ele>
        <time>2018-02-22T14:28:06Z</time>
      </trkpt>
      <trkpt lat="43.75924" lon="7.14317">
        <ele>647.07</ele>
        <time>2018-02-22T14:28:35Z</time>
      </trkpt>
      <trkpt lat="43.75924" lon="7.14318">
        <ele>647.07</ele>
        <time>2018-02-22T14:29:07Z</time>
      </trkpt>
      <trkpt lat="43.75924" lon="7.14319">
        <ele>647.07</ele>
        <time>2018-02-22T14:29:39Z</time>
      </trkpt>
      <trkpt lat="43.75925" lon="7.14317">
        <ele>647.07</ele>
        <time>2018-02-22T14:30:12Z</time>
      </trkpt>
      <trkpt lat="43.75927" lon="7.14313">
        <ele>647.07</ele>
        <time>2018-02-22T14:30:39Z</time>
      </trkpt>
    </trkseg>
  </trk>
</gpx>